Time,TemperatureF,DewpointF,PressureIn,WindDirection,WindDirectionDegrees,WindSpeedMPH,WindSpeedGustMPH,Humidity,HourlyPrecipIn,Conditions,Clouds,dailyrainin,SoftwareType,DateUTC
2013-04-24 00:01:00,37.4,37.4,31.01,NW,315,5.4,5.4,100,0.00,,,0.00,VWS V13.01,2013-04-24 05:01:00,
2013-04-24 00:02:00,37.6,37.6,31.01,NNW,330,2.7,2.7,100,0.00,,,0.00,VWS V13.01,2013-04-24 05:02:00,
2013-04-24 00:06:00,37.6,37.6,31.01,WNW,286,5.4,5.4,100,0.00,,,0.00,VWS V13.01,2013-04-24 05:06:00,
2013-04-24 00:07:00,37.8,37.8,31.01,NNW,334,11.0,11.0,100,0.00,,,0.00,VWS V13.01,2013-04-24 05:07:00,
2013-04-24 00:11:00,37.8,37.8,31.01,WNW,298,5.8,5.8,100,0.00,,,0.00,VWS V13.01,2013-04-24 05:11:00,
2013-04-24 00:12:00,37.8,37.8,31.01,NNW,345,6.3,6.3,100,0.00,,,0.00,VWS V13.01,2013-04-24 05:12:00,
2013-04-24 00:16:00,37.4,35.0,31.01,NW,322,7.6,7.6,91,0.00,,,0.00,VWS V13.01,2013-04-24 05:16:00,
2013-04-24 00:17:00,37.2,34.8,31.01,NW,325,12.3,12.3,91,0.00,,,0.00,VWS V13.01,2013-04-24 05:17:00,
2013-04-24 00:21:00,36.9,34.5,31.01,NNW,338,8.7,8.7,91,0.00,,,0.00,VWS V13.01,2013-04-24 05:21:00,
2013-04-24 00:22:00,36.9,36.9,31.01,NNW,333,5.8,5.8,100,0.00,,,0.00,VWS V13.01,2013-04-24 05:22:00,
2013-04-24 00:26:00,36.7,36.7,31.01,NW,310,6.3,6.3,100,0.00,,,0.00,VWS V13.01,2013-04-24 05:26:00,
2013-04-24 00:27:00,36.5,36.5,31.01,NW,314,7.6,7.6,100,0.00,,,0.00,VWS V13.01,2013-04-24 05:27:00,
2013-04-24 00:31:00,36.1,36.1,31.01,NNW,329,5.8,5.8,100,0.00,,,0.00,VWS V13.01,2013-04-24 05:31:00,
2013-04-24 00:32:00,36.1,36.1,31.01,North,353,8.1,8.1,100,0.00,,,0.00,VWS V13.01,2013-04-24 05:32:00,
2013-04-24 00:36:00,35.8,35.8,31.01,NNW,333,8.3,8.3,100,0.00,,,0.00,VWS V13.01,2013-04-24 05:36:00,
2013-04-24 00:37:00,35.6,35.6,31.01,NW,321,4.9,4.9,100,0.00,,,0.00,VWS V13.01,2013-04-24 05:37:00,
2013-04-24 00:41:00,35.2,35.2,31.01,WNW,302,5.4,5.4,100,0.00,,,0.00,VWS V13.01,2013-04-24 05:41:00,
2013-04-24 00:42:00,35.1,35.1,31.01,NW,321,10.1,10.1,100,0.00,,,0.00,VWS V13.01,2013-04-24 05:42:00,
2013-04-24 00:46:00,34.9,34.9,31.01,WNW,303,3.1,3.1,100,0.00,,,0.00,VWS V13.01,2013-04-24 05:46:00,
2013-04-24 00:47:00,34.9,34.9,31.01,NNW,341,4.0,4.0,100,0.00,,,0.00,VWS V13.01,2013-04-24 05:47:00,
2013-04-24 00:48:00,34.9,34.9,31.01,NW,309,4.0,4.0,100,0.00,,,0.00,VWS V13.01,2013-04-24 05:48:00,
2013-04-24 00:51:00,34.7,34.7,31.01,NW,325,8.3,8.3,100,0.00,,,0.00,VWS V13.01,2013-04-24 05:51:00,
2013-04-24 00:52:00,34.7,34.7,31.01,NW,307,5.4,5.4,100,0.00,,,0.00,VWS V13.01,2013-04-24 05:52:00,
2013-04-24 00:53:00,34.5,34.5,31.01,NW,321,5.8,5.8,100,0.00,,,0.00,VWS V13.01,2013-04-24 05:53:00,
2013-04-24 00:56:00,34.5,34.5,31.01,NNW,341,6.3,6.3,100,0.00,,,0.00,VWS V13.01,2013-04-24 05:56:00,
2013-04-24 00:57:00,34.5,34.5,31.01,NW,322,7.2,7.2,100,0.00,,,0.00,VWS V13.01,2013-04-24 05:57:00,
2013-04-24 00:58:00,34.5,34.5,31.01,NW,307,8.7,8.7,100,0.00,,,0.00,VWS V13.01,2013-04-24 05:58:00,
2013-04-24 01:01:00,34.3,34.3,31.01,NNW,338,8.1,8.1,100,0.00,,,0.00,VWS V13.01,2013-04-24 06:01:00,
2013-04-24 01:02:00,34.3,34.3,31.01,North,353,8.7,8.7,100,0.00,,,0.00,VWS V13.01,2013-04-24 06:02:00,
2013-04-24 01:03:00,34.3,34.3,31.01,WNW,293,6.3,6.3,100,0.00,,,0.00,VWS V13.01,2013-04-24 06:03:00,
2013-04-24 01:07:00,34.3,34.3,31.01,WNW,293,3.6,3.6,100,0.00,,,0.00,VWS V13.01,2013-04-24 06:07:00,
2013-04-24 01:08:00,34.3,34.3,31.01,NNW,333,8.3,8.3,100,0.00,,,0.00,VWS V13.01,2013-04-24 06:08:00,
2013-04-24 01:12:00,34.0,34.0,31.01,NW,323,8.3,8.3,100,0.00,,,0.00,VWS V13.01,2013-04-24 06:12:00,
2013-04-24 01:13:00,33.8,33.8,31.01,WNW,301,5.4,5.4,100,0.00,,,0.00,VWS V13.01,2013-04-24 06:13:00,
2013-04-24 01:17:00,33.6,33.6,31.01,NW,317,2.7,2.7,100,0.00,,,0.00,VWS V13.01,2013-04-24 06:17:00,
2013-04-24 01:18:00,33.6,33.6,31.01,NW,321,6.3,6.3,100,0.00,,,0.00,VWS V13.01,2013-04-24 06:18:00,
2013-04-24 01:22:00,33.4,33.4,31.01,NW,325,5.8,5.8,100,0.00,,,0.00,VWS V13.01,2013-04-24 06:22:00,
2013-04-24 01:23:00,33.3,33.3,31.01,West,277,7.6,7.6,100,0.00,,,0.00,VWS V13.01,2013-04-24 06:23:00,
2013-04-24 01:27:00,33.1,33.1,31.01,NW,306,5.8,5.8,100,0.00,,,0.00,VWS V13.01,2013-04-24 06:27:00,
2013-04-24 01:28:00,33.1,33.1,31.01,NW,312,8.1,8.1,100,0.00,,,0.00,VWS V13.01,2013-04-24 06:28:00,
2013-04-24 01:32:00,33.1,33.1,31.01,NW,310,5.4,5.4,100,0.00,,,0.00,VWS V13.01,2013-04-24 06:32:00,
2013-04-24 01:33:00,32.9,32.9,31.01,NNW,341,5.4,5.4,100,0.00,,,0.00,VWS V13.01,2013-04-24 06:33:00,
2013-04-24 01:37:00,32.7,32.7,31.01,WNW,297,4.0,4.0,100,0.00,,,0.00,VWS V13.01,2013-04-24 06:37:00,
2013-04-24 01:38:00,32.7,32.7,31.01,NNW,327,6.3,6.3,100,0.00,,,0.00,VWS V13.01,2013-04-24 06:38:00,
2013-04-24 01:42:00,32.7,32.7,31.01,NNW,327,3.6,3.6,100,0.00,,,0.00,VWS V13.01,2013-04-24 06:42:00,
2013-04-24 01:43:00,32.7,32.7,31.01,WNW,301,3.1,3.1,100,0.00,,,0.00,VWS V13.01,2013-04-24 06:43:00,
2013-04-24 01:47:00,32.7,32.7,31.01,NNW,333,3.1,3.1,100,0.00,,,0.00,VWS V13.01,2013-04-24 06:47:00,
2013-04-24 01:48:00,32.7,32.7,31.01,WNW,303,3.6,3.6,100,0.00,,,0.00,VWS V13.01,2013-04-24 06:48:00,
2013-04-24 01:52:00,32.5,32.5,31.01,NW,312,3.6,3.6,100,0.00,,,0.00,VWS V13.01,2013-04-24 06:52:00,
2013-04-24 01:53:00,32.7,32.7,31.01,NW,313,4.0,4.0,100,0.00,,,0.00,VWS V13.01,2013-04-24 06:53:00,
2013-04-24 01:57:00,32.5,32.5,31.01,NW,305,0.0,0.0,100,0.00,,,0.00,VWS V13.01,2013-04-24 06:57:00,
2013-04-24 01:58:00,32.5,32.5,31.01,NW,305,3.1,3.1,100,0.00,,,0.00,VWS V13.01,2013-04-24 06:58:00,
2013-04-24 02:02:00,32.5,32.5,31.01,NW,312,3.1,3.1,100,0.00,,,0.00,VWS V13.01,2013-04-24 07:02:00,
2013-04-24 02:03:00,32.5,32.5,31.01,NW,312,0.0,0.0,100,0.00,,,0.00,VWS V13.01,2013-04-24 07:03:00,
2013-04-24 02:07:00,32.5,32.5,31.01,NW,312,3.6,3.6,100,0.00,,,0.00,VWS V13.01,2013-04-24 07:07:00,
2013-04-24 02:08:00,32.5,32.5,31.01,NW,312,0.0,0.0,100,0.00,,,0.00,VWS V13.01,2013-04-24 07:08:00,
2013-04-24 02:12:00,32.5,32.5,31.01,NW,312,0.0,0.0,100,0.00,,,0.00,VWS V13.01,2013-04-24 07:12:00,
2013-04-24 02:13:00,32.5,32.5,31.01,NW,312,0.0,0.0,100,0.00,,,0.00,VWS V13.01,2013-04-24 07:13:00,
2013-04-24 02:17:00,32.5,32.5,31.01,NW,312,0.0,0.0,100,0.00,,,0.00,VWS V13.01,2013-04-24 07:17:00,
2013-04-24 02:18:00,32.5,32.5,31.01,NW,312,0.0,0.0,100,0.00,,,0.00,VWS V13.01,2013-04-24 07:18:00,
2013-04-24 02:19:00,32.5,32.5,31.01,NW,312,0.0,0.0,100,0.00,,,0.00,VWS V13.01,2013-04-24 07:19:00,
2013-04-24 02:22:00,32.5,32.5,31.01,NW,312,0.0,0.0,100,0.00,,,0.00,VWS V13.01,2013-04-24 07:22:00,
2013-04-24 02:23:00,32.5,32.5,31.01,NW,312,0.0,0.0,100,0.00,,,0.00,VWS V13.01,2013-04-24 07:23:00,
2013-04-24 02:24:00,32.5,32.5,31.01,NW,312,0.0,0.0,100,0.00,,,0.00,VWS V13.01,2013-04-24 07:24:00,
2013-04-24 02:27:00,32.5,32.5,31.01,NW,312,0.0,0.0,100,0.00,,,0.00,VWS V13.01,2013-04-24 07:27:00,
2013-04-24 02:28:00,32.5,32.5,31.01,NW,312,0.0,0.0,100,0.00,,,0.00,VWS V13.01,2013-04-24 07:28:00,
2013-04-24 02:29:00,32.5,32.5,31.01,NW,312,0.0,0.0,100,0.00,,,0.00,VWS V13.01,2013-04-24 07:29:00,
2013-04-24 02:33:00,32.5,32.5,31.01,NW,312,0.0,0.0,100,0.00,,,0.00,VWS V13.01,2013-04-24 07:33:00,
2013-04-24 02:34:00,32.5,32.5,31.01,NW,312,0.0,0.0,100,0.00,,,0.00,VWS V13.01,2013-04-24 07:34:00,
2013-04-24 02:38:00,32.5,32.5,31.01,NW,312,0.0,0.0,100,0.00,,,0.00,VWS V13.01,2013-04-24 07:38:00,
2013-04-24 02:39:00,32.5,32.5,31.01,NW,312,0.0,0.0,100,0.00,,,0.00,VWS V13.01,2013-04-24 07:39:00,
2013-04-24 02:43:00,32.5,32.5,31.01,NW,312,0.0,0.0,100,0.00,,,0.00,VWS V13.01,2013-04-24 07:43:00,
2013-04-24 02:44:00,32.5,32.5,31.01,NW,312,0.0,0.0,100,0.00,,,0.00,VWS V13.01,2013-04-24 07:44:00,
2013-04-24 02:48:00,32.5,32.5,31.01,NW,312,0.0,0.0,100,0.00,,,0.00,VWS V13.01,2013-04-24 07:48:00,
2013-04-24 02:49:00,32.5,32.5,31.01,NW,312,0.0,0.0,100,0.00,,,0.00,VWS V13.01,2013-04-24 07:49:00,
2013-04-24 02:53:00,32.5,32.5,31.01,NW,312,0.0,0.0,100,0.00,,,0.00,VWS V13.01,2013-04-24 07:53:00,
2013-04-24 02:54:00,32.5,32.5,31.01,NW,312,0.0,0.0,100,0.00,,,0.00,VWS V13.01,2013-04-24 07:54:00,
2013-04-24 02:58:00,32.5,32.5,31.01,NW,312,0.0,0.0,100,0.00,,,0.00,VWS V13.01,2013-04-24 07:58:00,
2013-04-24 02:59:00,32.5,32.5,31.01,NW,312,0.0,0.0,100,0.00,,,0.00,VWS V13.01,2013-04-24 07:59:00,
2013-04-24 03:03:00,32.5,32.5,31.01,NW,312,0.0,0.0,100,0.00,,,0.00,VWS V13.01,2013-04-24 08:03:00,
2013-04-24 03:04:00,32.5,32.5,31.01,NW,312,0.0,0.0,100,0.00,,,0.00,VWS V13.01,2013-04-24 08:04:00,
2013-04-24 03:08:00,32.5,32.5,31.01,NW,312,0.0,0.0,100,0.00,,,0.00,VWS V13.01,2013-04-24 08:08:00,
2013-04-24 03:09:00,32.5,32.5,31.01,NW,312,0.0,0.0,100,0.00,,,0.00,VWS V13.01,2013-04-24 08:09:00,
2013-04-24 03:13:00,32.5,32.5,31.01,NW,312,0.0,0.0,100,0.00,,,0.00,VWS V13.01,2013-04-24 08:13:00,
2013-04-24 03:14:00,32.5,32.5,31.01,NW,312,0.0,0.0,100,0.00,,,0.00,VWS V13.01,2013-04-24 08:14:00,
2013-04-24 03:15:00,32.5,32.5,31.01,NW,312,0.0,0.0,100,0.00,,,0.00,VWS V13.01,2013-04-24 08:15:00,
2013-04-24 03:18:00,32.5,32.5,31.01,NW,312,0.0,0.0,100,0.00,,,0.00,VWS V13.01,2013-04-24 08:18:00,
2013-04-24 03:19:00,32.5,32.5,31.01,NW,312,0.0,0.0,100,0.00,,,0.00,VWS V13.01,2013-04-24 08:19:00,
2013-04-24 03:20:00,32.5,32.5,31.01,NW,312,0.0,0.0,100,0.00,,,0.00,VWS V13.01,2013-04-24 08:20:00,
2013-04-24 03:23:00,32.5,32.5,31.01,NW,312,0.0,0.0,100,0.00,,,0.00,VWS V13.01,2013-04-24 08:23:00,
2013-04-24 03:24:00,32.5,32.5,31.01,NW,312,0.0,0.0,100,0.00,,,0.00,VWS V13.01,2013-04-24 08:24:00,
2013-04-24 03:25:00,32.5,32.5,31.01,NW,312,0.0,0.0,100,0.00,,,0.00,VWS V13.01,2013-04-24 08:25:00,
2013-04-24 03:28:00,32.5,32.5,31.01,NW,312,0.0,0.0,100,0.00,,,0.00,VWS V13.01,2013-04-24 08:28:00,
2013-04-24 03:29:00,32.5,32.5,31.01,NW,312,0.0,0.0,100,0.00,,,0.00,VWS V13.01,2013-04-24 08:29:00,
2013-04-24 03:30:00,32.5,32.5,31.01,NW,312,0.0,0.0,100,0.00,,,0.00,VWS V13.01,2013-04-24 08:30:00,
2013-04-24 03:33:00,32.5,32.5,31.01,NW,312,0.0,0.0,100,0.00,,,0.00,VWS V13.01,2013-04-24 08:33:00,
2013-04-24 03:34:00,32.5,32.5,31.01,NW,312,0.0,0.0,100,0.00,,,0.00,VWS V13.01,2013-04-24 08:34:00,
2013-04-24 03:35:00,32.7,32.7,31.01,NW,312,0.0,0.0,100,0.00,,,0.00,VWS V13.01,2013-04-24 08:35:00,
2013-04-24 03:38:00,32.5,32.5,31.01,NW,312,0.0,0.0,100,0.00,,,0.00,VWS V13.01,2013-04-24 08:38:00,
2013-04-24 03:39:00,32.5,32.5,31.01,NW,312,0.0,0.0,100,0.00,,,0.00,VWS V13.01,2013-04-24 08:39:00,
2013-04-24 03:40:00,32.5,32.5,31.01,NW,312,0.0,0.0,100,0.00,,,0.00,VWS V13.01,2013-04-24 08:40:00,
2013-04-24 03:43:00,32.5,32.5,31.01,NW,312,0.0,0.0,100,0.00,,,0.00,VWS V13.01,2013-04-24 08:43:00,
2013-04-24 03:44:00,32.5,32.5,31.01,NW,312,0.0,0.0,100,0.00,,,0.00,VWS V13.01,2013-04-24 08:44:00,
2013-04-24 03:45:00,32.5,32.5,31.01,NW,312,0.0,0.0,100,0.00,,,0.00,VWS V13.01,2013-04-24 08:45:00,
2013-04-24 03:48:00,32.5,32.5,31.01,NW,312,0.0,0.0,100,0.00,,,0.00,VWS V13.01,2013-04-24 08:48:00,
2013-04-24 03:49:00,32.5,32.5,31.01,NW,312,0.0,0.0,100,0.00,,,0.00,VWS V13.01,2013-04-24 08:49:00,
2013-04-24 03:50:00,32.5,32.5,31.01,NW,312,0.0,0.0,100,0.00,,,0.00,VWS V13.01,2013-04-24 08:50:00,
2013-04-24 03:53:00,32.5,32.5,31.01,NW,312,0.0,0.0,100,0.00,,,0.00,VWS V13.01,2013-04-24 08:53:00,
2013-04-24 03:54:00,32.5,32.5,31.01,NW,312,0.0,0.0,100,0.00,,,0.00,VWS V13.01,2013-04-24 08:54:00,
2013-04-24 03:55:00,32.5,32.5,31.01,NW,312,0.0,0.0,100,0.00,,,0.00,VWS V13.01,2013-04-24 08:55:00,
2013-04-24 03:59:00,32.5,32.5,31.01,NW,312,0.0,0.0,100,0.00,,,0.00,VWS V13.01,2013-04-24 08:59:00,
2013-04-24 04:00:00,32.7,32.7,31.01,NW,312,0.0,0.0,100,0.00,,,0.00,VWS V13.01,2013-04-24 09:00:00,
2013-04-24 04:04:00,32.7,32.7,31.01,NW,312,0.0,0.0,100,0.00,,,0.00,VWS V13.01,2013-04-24 09:04:00,
2013-04-24 04:05:00,32.7,32.7,31.01,NW,312,0.0,0.0,100,0.00,,,0.00,VWS V13.01,2013-04-24 09:05:00,
2013-04-24 04:06:00,32.7,32.7,31.01,NW,312,0.0,0.0,100,0.00,,,0.00,VWS V13.01,2013-04-24 09:06:00,
2013-04-24 04:09:00,32.7,32.7,31.01,NW,312,0.0,0.0,100,0.00,,,0.00,VWS V13.01,2013-04-24 09:09:00,
2013-04-24 04:10:00,32.7,32.7,31.01,NW,312,0.0,0.0,100,0.00,,,0.00,VWS V13.01,2013-04-24 09:10:00,
2013-04-24 04:11:00,32.7,32.7,31.01,NW,312,0.0,0.0,100,0.00,,,0.00,VWS V13.01,2013-04-24 09:11:00,
2013-04-24 04:14:00,32.7,32.7,31.01,NW,312,0.0,0.0,100,0.00,,,0.00,VWS V13.01,2013-04-24 09:14:00,
2013-04-24 04:15:00,32.7,32.7,31.01,NW,312,0.0,0.0,100,0.00,,,0.00,VWS V13.01,2013-04-24 09:15:00,
2013-04-24 04:19:00,32.7,32.7,31.01,NW,312,0.0,0.0,100,0.00,,,0.00,VWS V13.01,2013-04-24 09:19:00,
2013-04-24 04:20:00,32.7,32.7,31.01,NW,312,0.0,0.0,100,0.00,,,0.00,VWS V13.01,2013-04-24 09:20:00,
2013-04-24 04:21:00,32.7,32.7,31.01,NW,312,0.0,0.0,100,0.00,,,0.00,VWS V13.01,2013-04-24 09:21:00,
2013-04-24 04:24:00,32.7,32.7,31.01,NW,312,0.0,0.0,100,0.00,,,0.00,VWS V13.01,2013-04-24 09:24:00,
2013-04-24 04:25:00,32.7,32.7,31.01,NW,312,0.0,0.0,100,0.00,,,0.00,VWS V13.01,2013-04-24 09:25:00,
2013-04-24 04:26:00,32.7,32.7,31.01,NW,312,0.0,0.0,100,0.00,,,0.00,VWS V13.01,2013-04-24 09:26:00,
2013-04-24 04:29:00,32.7,32.7,31.01,NW,312,0.0,0.0,100,0.00,,,0.00,VWS V13.01,2013-04-24 09:29:00,
2013-04-24 04:30:00,32.7,32.7,31.01,NW,312,0.0,0.0,100,0.00,,,0.00,VWS V13.01,2013-04-24 09:30:00,
2013-04-24 04:31:00,32.7,32.7,31.01,NW,312,0.0,0.0,100,0.00,,,0.00,VWS V13.01,2013-04-24 09:31:00,
2013-04-24 04:34:00,32.7,32.7,31.01,NW,312,0.0,0.0,100,0.00,,,0.00,VWS V13.01,2013-04-24 09:34:00,
2013-04-24 04:35:00,32.7,32.7,31.01,NW,312,3.1,3.1,100,0.00,,,0.00,VWS V13.01,2013-04-24 09:35:00,
2013-04-24 04:36:00,32.7,32.7,31.01,NW,312,2.7,2.7,100,0.00,,,0.00,VWS V13.01,2013-04-24 09:36:00,
2013-04-24 04:39:00,32.9,32.9,31.01,NW,312,0.0,0.0,100,0.00,,,0.00,VWS V13.01,2013-04-24 09:39:00,
2013-04-24 04:40:00,32.9,32.9,31.01,NW,312,0.0,0.0,100,0.00,,,0.00,VWS V13.01,2013-04-24 09:40:00,
2013-04-24 04:41:00,32.9,32.9,31.01,NW,312,0.0,0.0,100,0.00,,,0.00,VWS V13.01,2013-04-24 09:41:00,
2013-04-24 04:44:00,32.9,32.9,31.01,NW,312,0.0,0.0,100,0.00,,,0.00,VWS V13.01,2013-04-24 09:44:00,
2013-04-24 04:45:00,32.9,32.9,31.01,NW,312,0.0,0.0,100,0.00,,,0.00,VWS V13.01,2013-04-24 09:45:00,
2013-04-24 04:46:00,33.1,33.1,31.01,NW,312,0.0,0.0,100,0.00,,,0.00,VWS V13.01,2013-04-24 09:46:00,
2013-04-24 04:49:00,33.1,33.1,31.01,NW,312,0.0,0.0,100,0.00,,,0.00,VWS V13.01,2013-04-24 09:49:00,
2013-04-24 04:50:00,33.3,33.3,31.01,WNW,285,5.8,5.8,100,0.00,,,0.00,VWS V13.01,2013-04-24 09:50:00,
2013-04-24 04:51:00,33.3,33.3,31.01,West,279,4.0,4.0,100,0.00,,,0.00,VWS V13.01,2013-04-24 09:51:00,
2013-04-24 04:54:00,33.1,33.1,31.01,WNW,302,2.7,2.7,100,0.00,,,0.00,VWS V13.01,2013-04-24 09:54:00,
2013-04-24 04:55:00,33.1,33.1,31.01,WNW,302,0.0,0.0,100,0.00,,,0.00,VWS V13.01,2013-04-24 09:55:00,
2013-04-24 04:56:00,33.3,33.3,31.01,WNW,302,0.0,0.0,100,0.00,,,0.00,VWS V13.01,2013-04-24 09:56:00,
2013-04-24 04:59:00,33.3,33.3,31.01,WNW,297,0.0,0.0,100,0.00,,,0.00,VWS V13.01,2013-04-24 09:59:00,
2013-04-24 05:00:00,33.1,33.1,31.01,WNW,297,0.0,0.0,100,0.00,,,0.00,VWS V13.01,2013-04-24 10:00:00,
2013-04-24 05:01:00,33.1,33.1,31.01,WNW,297,0.0,0.0,100,0.00,,,0.00,VWS V13.01,2013-04-24 10:01:00,
2013-04-24 05:04:00,33.1,33.1,31.01,WNW,297,0.0,0.0,100,0.00,,,0.00,VWS V13.01,2013-04-24 10:04:00,
2013-04-24 05:05:00,33.3,33.3,31.01,WNW,297,0.0,0.0,100,0.00,,,0.00,VWS V13.01,2013-04-24 10:05:00,
2013-04-24 05:06:00,33.3,33.3,31.01,WNW,297,0.0,0.0,100,0.00,,,0.00,VWS V13.01,2013-04-24 10:06:00,
2013-04-24 05:09:00,33.1,33.1,31.01,WNW,297,0.0,0.0,100,0.00,,,0.00,VWS V13.01,2013-04-24 10:09:00,
2013-04-24 05:10:00,33.1,33.1,31.01,WNW,297,0.0,0.0,100,0.00,,,0.00,VWS V13.01,2013-04-24 10:10:00,
2013-04-24 05:11:00,33.1,33.1,31.01,WNW,297,0.0,0.0,100,0.00,,,0.00,VWS V13.01,2013-04-24 10:11:00,
2013-04-24 05:15:00,33.1,33.1,31.01,WNW,297,0.0,0.0,100,0.00,,,0.00,VWS V13.01,2013-04-24 10:15:00,
2013-04-24 05:17:00,32.9,32.9,31.01,WNW,297,0.0,0.0,100,0.00,,,0.00,VWS V13.01,2013-04-24 10:17:00,
2013-04-24 05:20:00,32.7,32.7,31.01,WNW,297,0.0,0.0,100,0.00,,,0.00,VWS V13.01,2013-04-24 10:20:00,
2013-04-24 05:22:00,32.7,32.7,31.01,WNW,297,0.0,0.0,100,0.00,,,0.00,VWS V13.01,2013-04-24 10:22:00,
2013-04-24 05:25:00,32.7,32.7,31.01,WNW,297,0.0,0.0,100,0.00,,,0.00,VWS V13.01,2013-04-24 10:25:00,
2013-04-24 05:27:00,32.7,32.7,31.01,WNW,297,0.0,0.0,100,0.00,,,0.00,VWS V13.01,2013-04-24 10:27:00,
2013-04-24 05:30:00,32.5,32.5,31.01,WNW,297,0.0,0.0,100,0.00,,,0.00,VWS V13.01,2013-04-24 10:30:00,
2013-04-24 05:31:00,32.5,32.5,31.01,WNW,297,0.0,0.0,100,0.00,,,0.00,VWS V13.01,2013-04-24 10:31:00,
2013-04-24 05:32:00,32.5,32.5,31.01,WNW,297,0.0,0.0,100,0.00,,,0.00,VWS V13.01,2013-04-24 10:32:00,
2013-04-24 05:35:00,32.5,32.5,31.01,WNW,297,0.0,0.0,100,0.00,,,0.00,VWS V13.01,2013-04-24 10:35:00,
2013-04-24 05:37:00,32.5,32.5,31.01,WNW,297,0.0,0.0,100,0.00,,,0.00,VWS V13.01,2013-04-24 10:37:00,
2013-04-24 05:40:00,32.4,32.4,31.01,WNW,297,0.0,0.0,100,0.00,,,0.00,VWS V13.01,2013-04-24 10:40:00,
2013-04-24 05:42:00,32.4,32.4,31.01,WNW,297,0.0,0.0,100,0.00,,,0.00,VWS V13.01,2013-04-24 10:42:00,
2013-04-24 05:45:00,32.2,32.2,31.01,WNW,297,0.0,0.0,100,0.00,,,0.00,VWS V13.01,2013-04-24 10:45:00,
2013-04-24 05:46:00,32.2,32.2,31.01,WNW,297,0.0,0.0,100,0.00,,,0.00,VWS V13.01,2013-04-24 10:46:00,
2013-04-24 05:47:00,32.2,32.2,31.01,WNW,297,0.0,0.0,100,0.00,,,0.00,VWS V13.01,2013-04-24 10:47:00,
2013-04-24 05:50:00,32.2,32.2,31.01,WNW,297,0.0,0.0,100,0.00,,,0.00,VWS V13.01,2013-04-24 10:50:00,
2013-04-24 05:51:00,32.2,32.2,31.01,WNW,297,0.0,0.0,100,0.00,,,0.00,VWS V13.01,2013-04-24 10:51:00,
2013-04-24 05:52:00,31.8,31.8,31.01,WNW,297,0.0,0.0,100,0.00,,,0.00,VWS V13.01,2013-04-24 10:52:00,
2013-04-24 05:55:00,31.6,31.6,31.01,WNW,297,0.0,0.0,100,0.00,,,0.00,VWS V13.01,2013-04-24 10:55:00,
2013-04-24 05:56:00,31.6,31.6,31.01,WNW,297,0.0,0.0,100,0.00,,,0.00,VWS V13.01,2013-04-24 10:56:00,
2013-04-24 05:57:00,31.6,31.6,31.01,NW,315,0.0,0.0,100,0.00,,,0.00,VWS V13.01,2013-04-24 10:57:00,
2013-04-24 06:00:00,31.6,31.6,31.01,NW,315,0.0,0.0,100,0.00,,,0.00,VWS V13.01,2013-04-24 11:00:00,
2013-04-24 06:01:00,31.6,31.6,31.01,NW,315,0.0,0.0,100,0.00,,,0.00,VWS V13.01,2013-04-24 11:01:00,
2013-04-24 06:03:00,31.5,31.5,31.01,NW,315,0.0,0.0,100,0.00,,,0.00,VWS V13.01,2013-04-24 11:03:00,
2013-04-24 06:05:00,31.3,31.3,31.01,NW,315,0.0,0.0,100,0.00,,,0.00,VWS V13.01,2013-04-24 11:05:00,
2013-04-24 06:06:00,31.1,31.1,31.01,NW,315,0.0,0.0,100,0.00,,,0.00,VWS V13.01,2013-04-24 11:06:00,
2013-04-24 06:08:00,31.1,31.1,31.01,NW,315,0.0,0.0,100,0.00,,,0.00,VWS V13.01,2013-04-24 11:08:00,
2013-04-24 06:10:00,30.9,30.9,31.01,NW,315,0.0,0.0,100,0.00,,,0.00,VWS V13.01,2013-04-24 11:10:00,
2013-04-24 06:11:00,30.9,30.9,31.01,NW,315,0.0,0.0,100,0.00,,,0.00,VWS V13.01,2013-04-24 11:11:00,
2013-04-24 06:13:00,30.9,30.9,31.01,NW,315,0.0,0.0,100,0.00,,,0.00,VWS V13.01,2013-04-24 11:13:00,
2013-04-24 06:16:00,30.7,30.7,31.01,NW,315,0.0,0.0,100,0.00,,,0.00,VWS V13.01,2013-04-24 11:16:00,
2013-04-24 06:18:00,30.6,30.6,31.01,NW,315,0.0,0.0,100,0.00,,,0.00,VWS V13.01,2013-04-24 11:18:00,
2013-04-24 06:21:00,30.6,30.6,31.01,NW,315,0.0,0.0,100,0.00,,,0.00,VWS V13.01,2013-04-24 11:21:00,
2013-04-24 06:23:00,30.2,30.2,31.01,NW,315,0.0,0.0,100,0.00,,,0.00,VWS V13.01,2013-04-24 11:23:00,
2013-04-24 06:26:00,29.8,29.8,31.01,NW,315,0.0,0.0,100,0.00,,,0.00,VWS V13.01,2013-04-24 11:26:00,
2013-04-24 06:28:00,29.8,29.8,31.01,NW,315,0.0,0.0,100,0.00,,,0.00,VWS V13.01,2013-04-24 11:28:00,
2013-04-24 06:31:00,30.0,30.0,31.01,NW,315,0.0,0.0,100,0.00,,,0.00,VWS V13.01,2013-04-24 11:31:00,
2013-04-24 06:33:00,29.8,29.8,31.01,NW,315,0.0,0.0,100,0.00,,,0.00,VWS V13.01,2013-04-24 11:33:00,
2013-04-24 06:36:00,29.8,29.8,31.01,NW,315,0.0,0.0,100,0.00,,,0.00,VWS V13.01,2013-04-24 11:36:00,
2013-04-24 06:38:00,29.8,29.8,31.01,NW,315,0.0,0.0,100,0.00,,,0.00,VWS V13.01,2013-04-24 11:38:00,
2013-04-24 06:41:00,30.0,30.0,31.01,NW,315,0.0,0.0,100,0.00,,,0.00,VWS V13.01,2013-04-24 11:41:00,
2013-04-24 06:43:00,30.2,30.2,31.01,NW,315,0.0,0.0,100,0.00,,,0.00,VWS V13.01,2013-04-24 11:43:00,
2013-04-24 06:46:00,30.7,30.7,31.01,NW,315,0.0,0.0,100,0.00,,,0.00,VWS V13.01,2013-04-24 11:46:00,
2013-04-24 06:48:00,31.1,31.1,31.01,NW,315,0.0,0.0,100,0.00,,,0.00,VWS V13.01,2013-04-24 11:48:00,
2013-04-24 06:51:00,31.3,31.3,31.01,NW,315,0.0,0.0,100,0.00,,,0.00,VWS V13.01,2013-04-24 11:51:00,
2013-04-24 06:53:00,31.6,31.6,31.01,NW,315,0.0,0.0,100,0.00,,,0.00,VWS V13.01,2013-04-24 11:53:00,
2013-04-24 06:56:00,31.6,31.6,31.01,NW,315,0.0,0.0,100,0.00,,,0.00,VWS V13.01,2013-04-24 11:56:00,
2013-04-24 06:58:00,32.0,32.0,31.01,NW,315,0.0,0.0,100,0.00,,,0.00,VWS V13.01,2013-04-24 11:58:00,
2013-04-24 07:01:00,32.2,32.2,31.01,NW,315,0.0,0.0,100,0.00,,,0.00,VWS V13.01,2013-04-24 12:01:00,
2013-04-24 07:02:00,32.4,32.4,31.01,NW,315,0.0,0.0,100,0.00,,,0.00,VWS V13.01,2013-04-24 12:02:00,
2013-04-24 07:03:00,32.4,32.4,31.01,NW,315,0.0,0.0,100,0.00,,,0.00,VWS V13.01,2013-04-24 12:03:00,
2013-04-24 07:06:00,32.7,32.7,31.01,NW,315,0.0,0.0,100,0.00,,,0.00,VWS V13.01,2013-04-24 12:06:00,
2013-04-24 07:07:00,32.9,32.9,31.01,NW,315,0.0,0.0,100,0.00,,,0.00,VWS V13.01,2013-04-24 12:07:00,
2013-04-24 07:08:00,33.1,33.1,31.01,NW,315,0.0,0.0,100,0.00,,,0.00,VWS V13.01,2013-04-24 12:08:00,
2013-04-24 07:11:00,33.3,33.3,31.01,NW,315,0.0,0.0,100,0.00,,,0.00,VWS V13.01,2013-04-24 12:11:00,
2013-04-24 07:12:00,33.4,33.4,31.01,NW,315,0.0,0.0,100,0.00,,,0.00,VWS V13.01,2013-04-24 12:12:00,
2013-04-24 07:14:00,33.6,33.6,31.01,NW,315,0.0,0.0,100,0.00,,,0.00,VWS V13.01,2013-04-24 12:14:00,
2013-04-24 07:16:00,33.8,33.8,31.01,NW,315,0.0,0.0,100,0.00,,,0.00,VWS V13.01,2013-04-24 12:16:00,
2013-04-24 07:17:00,33.8,33.8,31.01,NW,315,0.0,0.0,100,0.00,,,0.00,VWS V13.01,2013-04-24 12:17:00,
2013-04-24 07:19:00,34.0,34.0,31.01,NW,315,0.0,0.0,100,0.00,,,0.00,VWS V13.01,2013-04-24 12:19:00,
2013-04-24 07:21:00,33.8,33.8,31.01,NW,315,0.0,0.0,100,0.00,,,0.00,VWS V13.01,2013-04-24 12:21:00,
2013-04-24 07:22:00,33.6,33.6,31.01,NW,315,0.0,0.0,100,0.00,,,0.00,VWS V13.01,2013-04-24 12:22:00,
2013-04-24 07:24:00,34.3,34.3,31.01,NW,315,0.0,0.0,100,0.00,,,0.00,VWS V13.01,2013-04-24 12:24:00,
2013-04-24 07:26:00,34.7,34.7,31.01,NW,315,0.0,0.0,100,0.00,,,0.00,VWS V13.01,2013-04-24 12:26:00,
2013-04-24 07:27:00,34.9,34.9,31.01,NW,315,0.0,0.0,100,0.00,,,0.00,VWS V13.01,2013-04-24 12:27:00,
2013-04-24 07:29:00,34.9,34.9,31.01,NW,315,0.0,0.0,100,0.00,,,0.00,VWS V13.01,2013-04-24 12:29:00,
2013-04-24 07:31:00,34.7,34.7,31.01,NW,315,0.0,0.0,100,0.00,,,0.00,VWS V13.01,2013-04-24 12:31:00,
2013-04-24 07:32:00,34.7,34.7,31.01,NW,315,0.0,0.0,100,0.00,,,0.00,VWS V13.01,2013-04-24 12:32:00,
2013-04-24 07:34:00,34.5,34.5,31.01,NW,315,0.0,0.0,100,0.00,,,0.00,VWS V13.01,2013-04-24 12:34:00,
2013-04-24 07:36:00,34.5,34.5,31.01,WNW,289,0.0,0.0,100,0.00,,,0.00,VWS V13.01,2013-04-24 12:36:00,
2013-04-24 07:37:00,34.5,34.5,31.01,WNW,289,0.0,0.0,100,0.00,,,0.00,VWS V13.01,2013-04-24 12:37:00,
2013-04-24 07:39:00,34.5,34.5,31.01,WNW,303,0.0,0.0,100,0.00,,,0.00,VWS V13.01,2013-04-24 12:39:00,
2013-04-24 07:41:00,34.9,34.9,31.01,NW,315,0.0,0.0,100,0.00,,,0.00,VWS V13.01,2013-04-24 12:41:00,
2013-04-24 07:42:00,34.9,34.9,31.01,NW,305,0.0,0.0,100,0.00,,,0.00,VWS V13.01,2013-04-24 12:42:00,
2013-04-24 07:44:00,34.7,34.7,31.01,NW,307,0.0,0.0,100,0.00,,,0.00,VWS V13.01,2013-04-24 12:44:00,
2013-04-24 07:46:00,34.7,34.7,31.01,WNW,289,0.0,0.0,100,0.00,,,0.00,VWS V13.01,2013-04-24 12:46:00,
2013-04-24 07:47:00,34.7,34.7,31.01,WNW,289,0.0,0.0,100,0.00,,,0.00,VWS V13.01,2013-04-24 12:47:00,
2013-04-24 07:49:00,35.2,35.2,31.01,NW,308,0.0,0.0,100,0.00,,,0.00,VWS V13.01,2013-04-24 12:49:00,
2013-04-24 07:51:00,34.9,34.9,31.01,NW,312,0.0,0.0,100,0.00,,,0.00,VWS V13.01,2013-04-24 12:51:00,
2013-04-24 07:52:00,34.9,34.9,31.01,NW,318,0.0,0.0,100,0.00,,,0.00,VWS V13.01,2013-04-24 12:52:00,
2013-04-24 07:53:00,35.1,35.1,31.01,NW,305,0.0,0.0,100,0.00,,,0.00,VWS V13.01,2013-04-24 12:53:00,
2013-04-24 07:54:00,35.1,35.1,31.01,NNW,328,0.0,0.0,100,0.00,,,0.00,VWS V13.01,2013-04-24 12:54:00,
2013-04-24 07:56:00,34.9,34.1,31.01,WNW,289,0.0,0.0,97,0.00,,,0.00,VWS V13.01,2013-04-24 12:56:00,
2013-04-24 07:57:00,34.9,34.1,31.01,WNW,303,0.0,0.0,97,0.00,,,0.00,VWS V13.01,2013-04-24 12:57:00,
2013-04-24 07:58:00,34.9,34.1,31.01,NW,314,0.0,0.0,97,0.00,,,0.00,VWS V13.01,2013-04-24 12:58:00,
2013-04-24 07:59:00,35.1,34.3,31.01,NW,305,0.0,0.0,97,0.00,,,0.00,VWS V13.01,2013-04-24 12:59:00,
2013-04-24 08:01:00,35.1,34.3,31.01,WNW,297,0.0,0.0,97,0.00,,,0.00,VWS V13.01,2013-04-24 13:01:00,
2013-04-24 08:02:00,35.4,34.7,31.01,NW,308,0.0,0.0,97,0.00,,,0.00,VWS V13.01,2013-04-24 13:02:00,
2013-04-24 08:03:00,34.7,33.9,31.01,West,272,0.0,0.0,97,0.00,,,0.00,VWS V13.01,2013-04-24 13:03:00,
2013-04-24 08:04:00,35.1,34.3,31.01,NNW,333,0.0,0.0,97,0.00,,,0.00,VWS V13.01,2013-04-24 13:04:00,
2013-04-24 08:06:00,35.2,34.5,31.01,North,0,0.0,0.0,97,0.00,,,0.00,VWS V13.01,2013-04-24 13:06:00,
2013-04-24 08:07:00,35.2,34.5,31.01,WNW,292,0.0,0.0,97,0.00,,,0.00,VWS V13.01,2013-04-24 13:07:00,
2013-04-24 08:08:00,34.9,34.1,31.01,WNW,294,0.0,0.0,97,0.00,,,0.00,VWS V13.01,2013-04-24 13:08:00,
2013-04-24 08:09:00,34.9,34.1,31.01,NW,326,0.0,0.0,97,0.00,,,0.00,VWS V13.01,2013-04-24 13:09:00,
2013-04-24 08:11:00,35.6,33.2,31.01,NW,317,0.0,0.0,91,0.00,,,0.00,VWS V13.01,2013-04-24 13:11:00,
2013-04-24 08:12:00,35.6,33.2,31.01,NW,305,7.6,7.6,91,0.00,,,0.00,VWS V13.01,2013-04-24 13:12:00,
2013-04-24 08:13:00,35.1,34.3,31.01,NW,309,4.9,4.9,97,0.00,,,0.00,VWS V13.01,2013-04-24 13:13:00,
2013-04-24 08:14:00,35.2,34.5,31.01,NW,323,8.3,8.3,97,0.00,,,0.00,VWS V13.01,2013-04-24 13:14:00,
2013-04-24 08:16:00,35.2,34.5,31.01,NNW,329,4.0,4.0,97,0.00,,,0.00,VWS V13.01,2013-04-24 13:16:00,
2013-04-24 08:17:00,35.4,34.7,31.01,NNW,329,2.7,2.7,97,0.00,,,0.00,VWS V13.01,2013-04-24 13:17:00,
2013-04-24 08:18:00,36.0,33.6,31.01,NW,306,5.4,5.4,91,0.00,,,0.00,VWS V13.01,2013-04-24 13:18:00,
2013-04-24 08:19:00,35.4,34.7,31.01,NNW,329,4.0,4.0,97,0.00,,,0.00,VWS V13.01,2013-04-24 13:19:00,
2013-04-24 08:22:00,36.1,33.8,31.01,NNW,329,2.7,2.7,91,0.00,,,0.00,VWS V13.01,2013-04-24 13:22:00,
2013-04-24 08:23:00,36.1,33.8,31.01,NW,310,3.1,3.1,91,0.00,,,0.00,VWS V13.01,2013-04-24 13:23:00,
2013-04-24 08:24:00,36.3,34.0,31.01,NNW,341,4.0,4.0,91,0.00,,,0.00,VWS V13.01,2013-04-24 13:24:00,
2013-04-24 08:27:00,36.3,34.0,31.01,NW,320,4.9,4.9,91,0.00,,,0.00,VWS V13.01,2013-04-24 13:27:00,
2013-04-24 08:28:00,36.7,34.3,31.01,NW,314,2.7,2.7,91,0.00,,,0.00,VWS V13.01,2013-04-24 13:28:00,
2013-04-24 08:29:00,36.9,34.5,31.01,NW,311,3.6,3.6,91,0.00,,,0.00,VWS V13.01,2013-04-24 13:29:00,
2013-04-24 08:32:00,36.7,34.3,31.01,NW,322,4.0,4.0,91,0.00,,,0.00,VWS V13.01,2013-04-24 13:32:00,
2013-04-24 08:33:00,36.1,33.8,31.01,WNW,303,5.8,5.8,91,0.00,,,0.00,VWS V13.01,2013-04-24 13:33:00,
2013-04-24 08:35:00,36.0,33.6,31.01,WNW,289,6.3,6.3,91,0.00,,,0.00,VWS V13.01,2013-04-24 13:35:00,
2013-04-24 08:37:00,36.1,33.8,31.01,NW,314,5.8,5.8,91,0.00,,,0.00,VWS V13.01,2013-04-24 13:37:00,
2013-04-24 08:38:00,36.5,34.1,31.01,NW,313,5.8,5.8,91,0.00,,,0.00,VWS V13.01,2013-04-24 13:38:00,
2013-04-24 08:40:00,37.0,34.7,31.01,NNW,340,0.0,0.0,91,0.00,,,0.00,VWS V13.01,2013-04-24 13:40:00,
2013-04-24 08:42:00,37.0,34.7,31.01,NW,317,4.0,4.0,91,0.00,,,0.00,VWS V13.01,2013-04-24 13:42:00,
2013-04-24 08:43:00,36.7,34.3,31.01,NW,307,6.3,6.3,91,0.00,,,0.00,VWS V13.01,2013-04-24 13:43:00,
2013-04-24 08:45:00,36.9,34.5,31.01,NW,307,4.0,4.0,91,0.00,,,0.00,VWS V13.01,2013-04-24 13:45:00,
2013-04-24 08:47:00,37.6,35.2,31.01,NNW,332,4.5,4.5,91,0.00,,,0.00,VWS V13.01,2013-04-24 13:47:00,
2013-04-24 08:48:00,37.2,34.8,31.01,NW,311,4.9,4.9,91,0.00,,,0.00,VWS V13.01,2013-04-24 13:48:00,
2013-04-24 08:50:00,37.4,35.0,31.01,NNW,340,4.5,4.5,91,0.00,,,0.00,VWS V13.01,2013-04-24 13:50:00,
2013-04-24 08:52:00,38.1,35.7,31.01,WNW,297,2.7,2.7,91,0.00,,,0.00,VWS V13.01,2013-04-24 13:52:00,
2013-04-24 08:53:00,37.9,35.5,31.01,WNW,289,3.1,3.1,91,0.00,,,0.00,VWS V13.01,2013-04-24 13:53:00,
2013-04-24 08:55:00,38.7,36.3,31.01,NNW,333,0.0,0.0,91,0.00,,,0.00,VWS V13.01,2013-04-24 13:55:00,
2013-04-24 08:57:00,38.1,35.7,31.01,WNW,289,2.7,2.7,91,0.00,,,0.00,VWS V13.01,2013-04-24 13:57:00,
2013-04-24 08:58:00,38.8,36.4,31.01,NW,310,3.1,3.1,91,0.00,,,0.00,VWS V13.01,2013-04-24 13:58:00,
2013-04-24 09:00:00,38.7,36.3,31.01,WSW,256,4.0,4.0,91,0.00,,,0.00,VWS V13.01,2013-04-24 14:00:00,
2013-04-24 09:02:00,38.8,36.4,31.01,WNW,302,5.4,5.4,91,0.00,,,0.00,VWS V13.01,2013-04-24 14:02:00,
2013-04-24 09:03:00,38.5,36.1,31.01,West,267,5.8,5.8,91,0.00,,,0.00,VWS V13.01,2013-04-24 14:03:00,
2013-04-24 09:05:00,38.7,36.3,31.01,NW,310,8.7,8.7,91,0.00,,,0.00,VWS V13.01,2013-04-24 14:05:00,
2013-04-24 09:07:00,38.3,35.9,31.01,WNW,301,8.1,8.1,91,0.00,,,0.00,VWS V13.01,2013-04-24 14:07:00,
2013-04-24 09:08:00,38.1,35.7,31.01,WNW,287,4.9,4.9,91,0.00,,,0.00,VWS V13.01,2013-04-24 14:08:00,
2013-04-24 09:10:00,37.4,35.0,31.01,NW,317,8.1,8.1,91,0.00,,,0.00,VWS V13.01,2013-04-24 14:10:00,
2013-04-24 09:12:00,37.6,35.2,31.01,WNW,303,5.4,5.4,91,0.00,,,0.00,VWS V13.01,2013-04-24 14:12:00,
2013-04-24 09:13:00,37.9,35.5,31.01,NNW,336,3.1,3.1,91,0.00,,,0.00,VWS V13.01,2013-04-24 14:13:00,
2013-04-24 09:15:00,38.3,35.9,31.01,West,273,3.1,3.1,91,0.00,,,0.00,VWS V13.01,2013-04-24 14:15:00,
2013-04-24 09:17:00,38.7,36.3,31.01,WNW,287,0.0,0.0,91,0.00,,,0.00,VWS V13.01,2013-04-24 14:17:00,
2013-04-24 09:18:00,39.2,35.1,31.01,WNW,288,5.4,5.4,85,0.00,,,0.00,VWS V13.01,2013-04-24 14:18:00,
2013-04-24 09:20:00,38.5,36.1,31.01,NW,321,5.8,5.8,91,0.00,,,0.00,VWS V13.01,2013-04-24 14:20:00,
2013-04-24 09:22:00,39.7,35.6,31.01,WNW,302,0.0,0.0,85,0.00,,,0.00,VWS V13.01,2013-04-24 14:22:00,
2013-04-24 09:23:00,40.1,36.0,31.01,WNW,302,0.0,0.0,85,0.00,,,0.00,VWS V13.01,2013-04-24 14:23:00,
2013-04-24 09:24:00,40.1,36.0,31.01,NW,308,3.1,3.1,85,0.00,,,0.00,VWS V13.01,2013-04-24 14:24:00,
2013-04-24 09:25:00,40.3,36.1,31.01,WNW,287,4.0,4.0,85,0.00,,,0.00,VWS V13.01,2013-04-24 14:25:00,
2013-04-24 09:27:00,39.7,35.6,31.01,WNW,297,3.1,3.1,85,0.00,,,0.00,VWS V13.01,2013-04-24 14:27:00,
2013-04-24 09:28:00,40.5,36.3,31.01,WNW,303,4.0,4.0,85,0.00,,,0.00,VWS V13.01,2013-04-24 14:28:00,
2013-04-24 09:29:00,39.9,35.8,31.01,NW,325,4.9,4.9,85,0.00,,,0.00,VWS V13.01,2013-04-24 14:29:00,
2013-04-24 09:30:00,39.6,35.4,31.01,NW,306,5.8,5.8,85,0.00,,,0.00,VWS V13.01,2013-04-24 14:30:00,
2013-04-24 09:32:00,39.0,36.6,31.01,NW,304,8.1,8.1,91,0.00,,,0.00,VWS V13.01,2013-04-24 14:32:00,
2013-04-24 09:33:00,38.8,36.4,31.01,WNW,292,7.6,7.6,91,0.00,,,0.00,VWS V13.01,2013-04-24 14:33:00,
2013-04-24 09:34:00,38.3,35.9,31.01,WNW,298,3.6,3.6,91,0.00,,,0.00,VWS V13.01,2013-04-24 14:34:00,
2013-04-24 09:35:00,38.1,35.7,31.01,NNW,332,5.4,5.4,91,0.00,,,0.00,VWS V13.01,2013-04-24 14:35:00,
2013-04-24 09:37:00,38.5,36.1,31.01,West,279,5.4,5.4,91,0.00,,,0.00,VWS V13.01,2013-04-24 14:37:00,
2013-04-24 09:38:00,38.7,36.3,31.01,West,276,3.6,3.6,91,0.00,,,0.00,VWS V13.01,2013-04-24 14:38:00,
2013-04-24 09:39:00,39.0,36.6,31.01,West,276,3.1,3.1,91,0.00,,,0.00,VWS V13.01,2013-04-24 14:39:00,
2013-04-24 09:40:00,39.4,35.2,31.01,West,264,5.4,5.4,85,0.00,,,0.00,VWS V13.01,2013-04-24 14:40:00,
2013-04-24 09:42:00,39.7,35.6,31.01,West,260,4.0,4.0,85,0.00,,,0.00,VWS V13.01,2013-04-24 14:42:00,
2013-04-24 09:43:00,39.7,35.6,31.01,WNW,287,6.3,6.3,85,0.00,,,0.00,VWS V13.01,2013-04-24 14:43:00,
2013-04-24 09:44:00,39.2,35.1,31.01,WNW,285,5.8,5.8,85,0.00,,,0.00,VWS V13.01,2013-04-24 14:44:00,
2013-04-24 09:45:00,39.0,36.6,31.01,WNW,300,6.7,6.7,91,0.00,,,0.00,VWS V13.01,2013-04-24 14:45:00,
2013-04-24 09:47:00,39.0,36.6,31.01,WSW,256,2.2,2.2,91,0.00,,,0.00,VWS V13.01,2013-04-24 14:47:00,
2013-04-24 09:48:00,39.6,35.4,31.01,NW,311,2.7,2.7,85,0.00,,,0.00,VWS V13.01,2013-04-24 14:48:00,
2013-04-24 09:49:00,39.7,35.6,31.01,NW,315,3.1,3.1,85,0.00,,,0.00,VWS V13.01,2013-04-24 14:49:00,
2013-04-24 09:50:00,39.9,35.8,31.01,NW,317,5.4,5.4,85,0.00,,,0.00,VWS V13.01,2013-04-24 14:50:00,
2013-04-24 09:52:00,39.7,35.6,31.01,NW,318,3.1,3.1,85,0.00,,,0.00,VWS V13.01,2013-04-24 14:52:00,
2013-04-24 09:53:00,40.1,36.0,31.01,NW,308,3.6,3.6,85,0.00,,,0.00,VWS V13.01,2013-04-24 14:53:00,
2013-04-24 09:54:00,40.1,36.0,31.01,WNW,285,4.0,4.0,85,0.00,,,0.00,VWS V13.01,2013-04-24 14:54:00,
2013-04-24 09:55:00,40.6,36.5,31.01,NW,319,5.4,5.4,85,0.00,,,0.00,VWS V13.01,2013-04-24 14:55:00,
2013-04-24 09:57:00,40.6,36.5,31.01,NW,313,7.6,7.6,85,0.00,,,0.00,VWS V13.01,2013-04-24 14:57:00,
2013-04-24 09:58:00,40.1,36.0,31.01,NNW,346,4.0,4.0,85,0.00,,,0.00,VWS V13.01,2013-04-24 14:58:00,
2013-04-24 09:59:00,40.3,36.1,31.01,NW,319,5.4,5.4,85,0.00,,,0.00,VWS V13.01,2013-04-24 14:59:00,
2013-04-24 10:00:00,40.5,36.3,31.01,NNW,329,0.0,0.0,85,0.00,,,0.00,VWS V13.01,2013-04-24 15:00:00,
2013-04-24 10:03:00,40.3,36.1,31.01,WNW,293,5.4,5.4,85,0.00,,,0.00,VWS V13.01,2013-04-24 15:03:00,
2013-04-24 10:04:00,40.5,36.3,31.01,West,278,5.4,5.4,85,0.00,,,0.00,VWS V13.01,2013-04-24 15:04:00,
2013-04-24 10:09:00,41.7,37.5,31.01,WNW,292,0.0,0.0,85,0.00,,,0.00,VWS V13.01,2013-04-24 15:09:00,
2013-04-24 10:14:00,42.6,38.4,31.01,WNW,301,4.0,4.0,85,0.00,,,0.00,VWS V13.01,2013-04-24 15:14:00,
2013-04-24 10:19:00,45.3,39.2,31.01,NW,322,0.0,0.0,79,0.00,,,0.00,VWS V13.01,2013-04-24 15:19:00,
2013-04-24 10:24:00,45.1,39.0,31.01,WNW,296,0.0,0.0,79,0.00,,,0.00,VWS V13.01,2013-04-24 15:24:00,
2013-04-24 10:29:00,45.3,39.2,31.01,NNW,328,4.0,4.0,79,0.00,,,0.00,VWS V13.01,2013-04-24 15:29:00,
2013-04-24 10:30:00,46.2,40.1,31.01,NNW,346,5.4,5.4,79,0.00,,,0.00,VWS V13.01,2013-04-24 15:30:00,
2013-04-24 10:34:00,46.8,40.6,31.01,NNW,339,3.6,3.6,79,0.00,,,0.00,VWS V13.01,2013-04-24 15:34:00,
2013-04-24 10:35:00,46.8,40.6,31.01,NNW,328,4.0,4.0,79,0.00,,,0.00,VWS V13.01,2013-04-24 15:35:00,
2013-04-24 10:39:00,46.2,40.1,31.01,WNW,290,0.0,0.0,79,0.00,,,0.00,VWS V13.01,2013-04-24 15:39:00,
2013-04-24 10:40:00,46.8,40.6,31.01,WNW,290,0.0,0.0,79,0.00,,,0.00,VWS V13.01,2013-04-24 15:40:00,
2013-04-24 10:44:00,45.5,39.4,31.01,WNW,292,8.3,8.3,79,0.00,,,0.00,VWS V13.01,2013-04-24 15:44:00,
2013-04-24 10:45:00,45.5,39.4,31.01,WNW,284,5.8,5.8,79,0.00,,,0.00,VWS V13.01,2013-04-24 15:45:00,
2013-04-24 10:49:00,44.1,39.8,31.01,NNW,341,5.4,5.4,85,0.00,,,0.00,VWS V13.01,2013-04-24 15:49:00,
2013-04-24 10:50:00,44.1,39.8,31.01,NNW,341,5.4,5.4,85,0.00,,,0.00,VWS V13.01,2013-04-24 15:50:00,
2013-04-24 10:54:00,45.9,39.7,31.01,NW,306,6.3,6.3,79,0.00,,,0.00,VWS V13.01,2013-04-24 15:54:00,
2013-04-24 10:55:00,45.9,39.7,31.01,NW,316,4.9,4.9,79,0.00,,,0.00,VWS V13.01,2013-04-24 15:55:00,
2013-04-24 10:59:00,47.5,41.3,31.01,West,277,3.6,3.6,79,0.00,,,0.00,VWS V13.01,2013-04-24 15:59:00,
2013-04-24 11:00:00,47.5,41.3,31.01,West,261,3.1,3.1,79,0.00,,,0.00,VWS V13.01,2013-04-24 16:00:00,
2013-04-24 11:05:00,47.8,41.7,31.01,NW,323,0.0,0.0,79,0.00,,,0.00,VWS V13.01,2013-04-24 16:05:00,
2013-04-24 11:10:00,46.8,40.6,31.01,NW,322,3.1,3.1,79,0.00,,,0.00,VWS V13.01,2013-04-24 16:10:00,
2013-04-24 11:15:00,48.4,40.1,31.01,NW,325,0.0,0.0,73,0.00,,,0.00,VWS V13.01,2013-04-24 16:15:00,
2013-04-24 11:20:00,48.2,40.0,31.01,WNW,300,0.0,0.0,73,0.00,,,0.00,VWS V13.01,2013-04-24 16:20:00,
2013-04-24 11:25:00,50.2,41.9,31.01,SSE,153,0.0,0.0,73,0.00,,,0.00,VWS V13.01,2013-04-24 16:25:00,
2013-04-24 11:30:00,48.9,40.7,31.01,NW,307,6.7,6.7,73,0.00,,,0.00,VWS V13.01,2013-04-24 16:30:00,
2013-04-24 11:35:00,49.1,40.8,31.01,North,357,2.7,2.7,73,0.00,,,0.00,VWS V13.01,2013-04-24 16:35:00,
2013-04-24 11:40:00,48.7,40.5,31.01,WNW,299,7.6,7.6,73,0.00,,,0.00,VWS V13.01,2013-04-24 16:40:00,
2013-04-24 11:45:00,48.7,40.5,31.01,West,263,0.0,0.0,73,0.00,,,0.00,VWS V13.01,2013-04-24 16:45:00,
2013-04-24 11:50:00,49.8,41.5,31.01,WSW,241,0.0,0.0,73,0.00,,,0.00,VWS V13.01,2013-04-24 16:50:00,
2013-04-24 11:55:00,50.0,41.7,31.01,NW,320,5.8,5.8,73,0.00,,,0.00,VWS V13.01,2013-04-24 16:55:00,
2013-04-24 11:56:00,49.6,41.3,31.01,NW,310,5.4,5.4,73,0.00,,,0.00,VWS V13.01,2013-04-24 16:56:00,
2013-04-24 12:00:00,52.3,44.0,31.01,NNW,342,0.0,0.0,73,0.00,,,0.00,VWS V13.01,2013-04-24 17:00:00,
2013-04-24 12:01:00,52.9,44.5,31.01,NNW,342,0.0,0.0,73,0.00,,,0.00,VWS V13.01,2013-04-24 17:01:00,
2013-04-24 12:05:00,51.6,43.3,31.01,NW,311,0.0,0.0,73,0.00,,,0.00,VWS V13.01,2013-04-24 17:05:00,
2013-04-24 12:06:00,52.2,43.8,31.01,NW,311,0.0,0.0,73,0.00,,,0.00,VWS V13.01,2013-04-24 17:06:00,
2013-04-24 12:10:00,51.8,43.4,31.01,NW,304,0.0,0.0,73,0.00,,,0.00,VWS V13.01,2013-04-24 17:10:00,
2013-04-24 12:11:00,51.8,43.4,31.01,NNW,339,0.0,0.0,73,0.00,,,0.00,VWS V13.01,2013-04-24 17:11:00,
2013-04-24 12:15:00,50.2,41.9,31.01,West,267,3.6,3.6,73,0.00,,,0.00,VWS V13.01,2013-04-24 17:15:00,
2013-04-24 12:16:00,50.2,41.9,31.01,West,267,2.7,2.7,73,0.00,,,0.00,VWS V13.01,2013-04-24 17:16:00,
2013-04-24 12:20:00,47.8,41.7,31.01,WNW,285,3.1,3.1,79,0.00,,,0.00,VWS V13.01,2013-04-24 17:20:00,
2013-04-24 12:21:00,48.9,40.7,31.01,WNW,285,3.1,3.1,73,0.00,,,0.00,VWS V13.01,2013-04-24 17:21:00,
2013-04-24 12:25:00,49.6,41.3,31.01,SW,233,0.0,0.0,73,0.00,,,0.00,VWS V13.01,2013-04-24 17:25:00,
2013-04-24 12:26:00,50.0,41.7,31.01,SW,233,0.0,0.0,73,0.00,,,0.00,VWS V13.01,2013-04-24 17:26:00,
2013-04-24 12:31:00,50.7,42.4,31.01,WNW,301,5.8,5.8,73,0.00,,,0.00,VWS V13.01,2013-04-24 17:31:00,
2013-04-24 12:36:00,52.3,44.0,31.01,SW,232,0.0,0.0,73,0.00,,,0.00,VWS V13.01,2013-04-24 17:36:00,
2013-04-24 12:37:00,52.2,43.8,31.01,WSW,246,4.9,4.9,73,0.00,,,0.00,VWS V13.01,2013-04-24 17:37:00,
2013-04-24 12:41:00,53.2,44.8,31.01,West,264,0.0,0.0,73,0.00,,,0.00,VWS V13.01,2013-04-24 17:41:00,
2013-04-24 12:42:00,52.7,44.3,31.01,WSW,254,4.0,4.0,73,0.00,,,0.00,VWS V13.01,2013-04-24 17:42:00,
2013-04-24 12:46:00,51.4,43.1,31.01,South,186,2.7,2.7,73,0.00,,,0.00,VWS V13.01,2013-04-24 17:46:00,
2013-04-24 12:47:00,52.3,44.0,31.01,West,274,3.6,3.6,73,0.00,,,0.00,VWS V13.01,2013-04-24 17:47:00,
2013-04-24 12:51:00,51.8,43.4,31.01,West,268,0.0,0.0,73,0.00,,,0.00,VWS V13.01,2013-04-24 17:51:00,
2013-04-24 12:52:00,51.8,43.4,31.01,WNW,288,5.8,5.8,73,0.00,,,0.00,VWS V13.01,2013-04-24 17:52:00,
2013-04-24 12:56:00,49.8,41.5,31.01,WNW,290,4.0,4.0,73,0.00,,,0.00,VWS V13.01,2013-04-24 17:56:00,
2013-04-24 12:57:00,51.1,42.7,31.01,WNW,286,3.6,3.6,73,0.00,,,0.00,VWS V13.01,2013-04-24 17:57:00,
2013-04-24 13:01:00,51.1,42.7,31.01,West,265,5.4,5.4,73,0.00,,,0.00,VWS V13.01,2013-04-24 18:01:00,
2013-04-24 13:02:00,51.1,42.7,31.01,West,264,5.4,5.4,73,0.00,,,0.00,VWS V13.01,2013-04-24 18:02:00,
2013-04-24 13:06:00,51.8,43.4,31.01,WNW,292,0.0,0.0,73,0.00,,,0.00,VWS V13.01,2013-04-24 18:06:00,
2013-04-24 13:07:00,52.0,43.6,31.01,NW,305,0.0,0.0,73,0.00,,,0.00,VWS V13.01,2013-04-24 18:07:00,
2013-04-24 13:11:00,52.3,44.0,31.01,West,269,7.2,7.2,73,0.00,,,0.00,VWS V13.01,2013-04-24 18:11:00,
2013-04-24 13:12:00,51.6,43.3,31.01,WNW,302,6.3,6.3,73,0.00,,,0.00,VWS V13.01,2013-04-24 18:12:00,
2013-04-24 13:16:00,52.5,44.1,31.01,West,271,4.9,4.9,73,0.00,,,0.00,VWS V13.01,2013-04-24 18:16:00,
2013-04-24 13:17:00,52.7,44.3,31.01,West,274,5.4,5.4,73,0.00,,,0.00,VWS V13.01,2013-04-24 18:17:00,
2013-04-24 13:21:00,54.0,43.3,31.01,NW,322,0.0,0.0,67,0.00,,,0.00,VWS V13.01,2013-04-24 18:21:00,
2013-04-24 13:22:00,54.5,43.8,31.01,NW,322,0.0,0.0,67,0.00,,,0.00,VWS V13.01,2013-04-24 18:22:00,
2013-04-24 13:26:00,52.9,44.5,31.01,WSW,256,6.3,6.3,73,0.00,,,0.00,VWS V13.01,2013-04-24 18:26:00,
2013-04-24 13:27:00,54.0,43.3,31.01,WSW,248,3.1,3.1,67,0.00,,,0.00,VWS V13.01,2013-04-24 18:27:00,
2013-04-24 13:31:00,55.2,44.5,31.01,WNW,297,4.5,4.5,67,0.00,,,0.00,VWS V13.01,2013-04-24 18:31:00,
2013-04-24 13:32:00,53.4,45.0,31.01,West,270,5.8,5.8,73,0.00,,,0.00,VWS V13.01,2013-04-24 18:32:00,
2013-04-24 13:36:00,52.3,44.0,31.01,NW,306,4.0,4.0,73,0.00,,,0.00,VWS V13.01,2013-04-24 18:36:00,
2013-04-24 13:37:00,52.3,44.0,31.01,North,353,3.1,3.1,73,0.00,,,0.00,VWS V13.01,2013-04-24 18:37:00,
2013-04-24 13:42:00,55.0,44.3,31.01,WSW,244,0.0,0.0,67,0.00,,,0.00,VWS V13.01,2013-04-24 18:42:00,
2013-04-24 13:47:00,57.0,46.2,31.01,SSW,204,0.0,0.0,67,0.00,,,0.00,VWS V13.01,2013-04-24 18:47:00,
2013-04-24 13:52:00,55.4,44.6,31.01,SSW,204,4.0,4.0,67,0.00,,,0.00,VWS V13.01,2013-04-24 18:52:00,
2013-04-24 13:53:00,54.7,44.0,31.01,SSW,208,0.0,0.0,67,0.00,,,0.00,VWS V13.01,2013-04-24 18:53:00,
2013-04-24 13:57:00,54.3,43.6,31.01,SW,228,3.6,3.6,67,0.00,,,0.00,VWS V13.01,2013-04-24 18:57:00,
2013-04-24 13:58:00,55.2,44.5,31.01,WSW,251,0.0,0.0,67,0.00,,,0.00,VWS V13.01,2013-04-24 18:58:00,
2013-04-24 14:02:00,54.7,44.0,31.01,WNW,282,2.7,2.7,67,0.00,,,0.00,VWS V13.01,2013-04-24 19:02:00,
2013-04-24 14:03:00,55.0,44.3,31.01,WNW,293,4.0,4.0,67,0.00,,,0.00,VWS V13.01,2013-04-24 19:03:00,
2013-04-24 14:07:00,52.3,44.0,31.01,NW,313,4.0,4.0,73,0.00,,,0.00,VWS V13.01,2013-04-24 19:07:00,
2013-04-24 14:08:00,53.6,42.9,31.01,West,263,0.0,0.0,67,0.00,,,0.00,VWS V13.01,2013-04-24 19:08:00,
2013-04-24 14:12:00,53.1,44.7,31.01,West,269,2.7,2.7,73,0.00,,,0.00,VWS V13.01,2013-04-24 19:12:00,
2013-04-24 14:13:00,54.0,43.3,31.01,SW,231,4.0,4.0,67,0.00,,,0.00,VWS V13.01,2013-04-24 19:13:00,
2013-04-24 14:17:00,54.0,43.3,31.01,WSW,240,3.1,3.1,67,0.00,,,0.00,VWS V13.01,2013-04-24 19:17:00,
2013-04-24 14:18:00,54.5,43.8,31.01,West,264,0.0,0.0,67,0.00,,,0.00,VWS V13.01,2013-04-24 19:18:00,
2013-04-24 14:22:00,54.7,44.0,31.01,SSW,207,0.0,0.0,67,0.00,,,0.00,VWS V13.01,2013-04-24 19:22:00,
2013-04-24 14:23:00,54.9,44.1,31.01,SW,220,0.0,0.0,67,0.00,,,0.00,VWS V13.01,2013-04-24 19:23:00,
2013-04-24 14:27:00,53.6,42.9,31.01,SW,229,3.6,3.6,67,0.00,,,0.00,VWS V13.01,2013-04-24 19:27:00,
2013-04-24 14:28:00,52.9,44.5,31.01,SW,224,4.9,4.9,73,0.00,,,0.00,VWS V13.01,2013-04-24 19:28:00,
2013-04-24 14:32:00,52.5,44.1,31.01,West,268,6.3,6.3,73,0.00,,,0.00,VWS V13.01,2013-04-24 19:32:00,
2013-04-24 14:33:00,52.2,43.8,31.01,WSW,251,6.3,6.3,73,0.00,,,0.00,VWS V13.01,2013-04-24 19:33:00,
2013-04-24 14:37:00,52.2,43.8,31.01,WSW,253,4.5,4.5,73,0.00,,,0.00,VWS V13.01,2013-04-24 19:37:00,
2013-04-24 14:38:00,51.3,42.9,31.01,West,260,5.4,5.4,73,0.00,,,0.00,VWS V13.01,2013-04-24 19:38:00,
2013-04-24 14:42:00,51.6,43.3,31.01,West,275,4.0,4.0,73,0.00,,,0.00,VWS V13.01,2013-04-24 19:42:00,
2013-04-24 14:43:00,51.6,43.3,31.01,WNW,287,0.0,0.0,73,0.00,,,0.00,VWS V13.01,2013-04-24 19:43:00,
2013-04-24 14:47:00,53.6,42.9,31.01,SW,232,4.9,4.9,67,0.00,,,0.00,VWS V13.01,2013-04-24 19:47:00,
2013-04-24 14:48:00,53.8,43.1,31.01,SW,220,3.1,3.1,67,0.00,,,0.00,VWS V13.01,2013-04-24 19:48:00,
2013-04-24 14:52:00,53.1,44.7,31.01,SW,232,6.3,6.3,73,0.00,,,0.00,VWS V13.01,2013-04-24 19:52:00,
2013-04-24 14:53:00,52.9,44.5,31.01,SW,235,3.1,3.1,73,0.00,,,0.00,VWS V13.01,2013-04-24 19:53:00,
2013-04-24 14:54:00,52.3,44.0,31.01,SW,235,2.7,2.7,73,0.00,,,0.00,VWS V13.01,2013-04-24 19:54:00,
2013-04-24 14:57:00,52.2,43.8,31.01,WSW,251,5.8,5.8,73,0.00,,,0.00,VWS V13.01,2013-04-24 19:57:00,
2013-04-24 14:58:00,52.2,43.8,31.01,WSW,255,3.1,3.1,73,0.00,,,0.00,VWS V13.01,2013-04-24 19:58:00,
2013-04-24 14:59:00,52.0,43.6,31.01,WSW,245,3.6,3.6,73,0.00,,,0.00,VWS V13.01,2013-04-24 19:59:00,
2013-04-24 15:02:00,51.6,43.3,31.01,SW,222,4.9,4.9,73,0.00,,,0.00,VWS V13.01,2013-04-24 20:02:00,
2013-04-24 15:03:00,51.6,43.3,31.01,SW,229,3.1,3.1,73,0.00,,,0.00,VWS V13.01,2013-04-24 20:03:00,
2013-04-24 15:04:00,51.3,42.9,31.01,SSW,202,7.6,7.6,73,0.00,,,0.00,VWS V13.01,2013-04-24 20:04:00,
2013-04-24 15:07:00,52.7,44.3,31.01,SW,219,5.8,5.8,73,0.00,,,0.00,VWS V13.01,2013-04-24 20:07:00,
2013-04-24 15:08:00,52.7,44.3,31.01,SW,225,6.3,6.3,73,0.00,,,0.00,VWS V13.01,2013-04-24 20:08:00,
2013-04-24 15:09:00,52.0,43.6,31.01,SW,235,5.4,5.4,73,0.00,,,0.00,VWS V13.01,2013-04-24 20:09:00,
2013-04-24 15:12:00,52.7,44.3,31.01,SW,230,2.7,2.7,73,0.00,,,0.00,VWS V13.01,2013-04-24 20:12:00,
2013-04-24 15:13:00,53.1,44.7,31.01,SW,230,2.7,2.7,73,0.00,,,0.00,VWS V13.01,2013-04-24 20:13:00,
2013-04-24 15:14:00,53.1,44.7,31.01,WSW,250,4.9,4.9,73,0.00,,,0.00,VWS V13.01,2013-04-24 20:14:00,
2013-04-24 15:17:00,51.8,43.4,31.01,WNW,287,4.0,4.0,73,0.00,,,0.00,VWS V13.01,2013-04-24 20:17:00,
2013-04-24 15:18:00,51.8,43.4,31.01,NW,304,3.1,3.1,73,0.00,,,0.00,VWS V13.01,2013-04-24 20:18:00,
2013-04-24 15:19:00,52.2,43.8,31.01,West,259,2.7,2.7,73,0.00,,,0.00,VWS V13.01,2013-04-24 20:19:00,
2013-04-24 15:23:00,52.7,44.3,31.01,SW,225,5.8,5.8,73,0.00,,,0.00,VWS V13.01,2013-04-24 20:23:00,
2013-04-24 15:24:00,52.7,44.3,31.01,SW,233,4.9,4.9,73,0.00,,,0.00,VWS V13.01,2013-04-24 20:24:00,
2013-04-24 15:25:00,52.7,44.3,31.01,SW,236,3.1,3.1,73,0.00,,,0.00,VWS V13.01,2013-04-24 20:25:00,
2013-04-24 15:28:00,52.9,44.5,31.01,WSW,252,4.0,4.0,73,0.00,,,0.00,VWS V13.01,2013-04-24 20:28:00,
2013-04-24 15:29:00,52.9,44.5,31.01,SW,229,3.6,3.6,73,0.00,,,0.00,VWS V13.01,2013-04-24 20:29:00,
2013-04-24 15:30:00,52.9,44.5,31.01,WSW,247,5.8,5.8,73,0.00,,,0.00,VWS V13.01,2013-04-24 20:30:00,
2013-04-24 15:33:00,53.4,45.0,31.01,SW,216,5.8,5.8,73,0.00,,,0.00,VWS V13.01,2013-04-24 20:33:00,
2013-04-24 15:34:00,53.6,42.9,31.01,SW,232,6.3,6.3,67,0.00,,,0.00,VWS V13.01,2013-04-24 20:34:00,
2013-04-24 15:35:00,53.6,42.9,31.01,WSW,240,4.9,4.9,67,0.00,,,0.00,VWS V13.01,2013-04-24 20:35:00,
2013-04-24 15:38:00,53.6,42.9,31.01,SW,225,2.7,2.7,67,0.00,,,0.00,VWS V13.01,2013-04-24 20:38:00,
2013-04-24 15:39:00,53.4,45.0,31.01,SW,232,7.6,7.6,73,0.00,,,0.00,VWS V13.01,2013-04-24 20:39:00,
2013-04-24 15:40:00,53.2,44.8,31.01,WSW,256,5.4,5.4,73,0.00,,,0.00,VWS V13.01,2013-04-24 20:40:00,
2013-04-24 15:43:00,54.0,43.3,31.01,SW,233,5.4,5.4,67,0.00,,,0.00,VWS V13.01,2013-04-24 20:43:00,
2013-04-24 15:44:00,54.1,43.4,31.01,WSW,252,2.7,2.7,67,0.00,,,0.00,VWS V13.01,2013-04-24 20:44:00,
2013-04-24 15:45:00,54.0,43.3,31.01,WSW,252,0.0,0.0,67,0.00,,,0.00,VWS V13.01,2013-04-24 20:45:00,
2013-04-24 15:48:00,53.2,44.8,31.01,SW,226,3.1,3.1,73,0.00,,,0.00,VWS V13.01,2013-04-24 20:48:00,
2013-04-24 15:49:00,53.2,44.8,31.01,SW,233,8.3,8.3,73,0.00,,,0.00,VWS V13.01,2013-04-24 20:49:00,
2013-04-24 15:50:00,53.2,44.8,31.01,SW,236,2.7,2.7,73,0.00,,,0.00,VWS V13.01,2013-04-24 20:50:00,
2013-04-24 15:53:00,53.8,43.1,31.01,WNW,298,2.2,2.2,67,0.00,,,0.00,VWS V13.01,2013-04-24 20:53:00,
2013-04-24 15:54:00,54.0,43.3,31.01,SW,228,4.0,4.0,67,0.00,,,0.00,VWS V13.01,2013-04-24 20:54:00,
2013-04-24 15:55:00,54.1,43.4,31.01,SW,227,5.8,5.8,67,0.00,,,0.00,VWS V13.01,2013-04-24 20:55:00,
2013-04-24 15:58:00,53.4,45.0,31.01,WSW,238,6.3,6.3,73,0.00,,,0.00,VWS V13.01,2013-04-24 20:58:00,
2013-04-24 16:00:00,52.9,44.5,31.01,SW,222,5.4,5.4,73,0.00,,,0.00,VWS V13.01,2013-04-24 21:00:00,
2013-04-24 16:03:00,54.0,43.3,31.01,WSW,244,5.4,5.4,67,0.00,,,0.00,VWS V13.01,2013-04-24 21:03:00,
2013-04-24 16:05:00,53.6,42.9,31.01,WSW,248,5.8,5.8,67,0.00,,,0.00,VWS V13.01,2013-04-24 21:05:00,
2013-04-24 16:08:00,53.4,45.0,31.01,West,265,3.6,3.6,73,0.00,,,0.00,VWS V13.01,2013-04-24 21:08:00,
2013-04-24 16:09:00,53.4,45.0,31.01,West,265,3.6,3.6,73,0.00,,,0.00,VWS V13.01,2013-04-24 21:09:00,
2013-04-24 16:10:00,53.1,44.7,31.01,SW,227,3.1,3.1,73,0.00,,,0.00,VWS V13.01,2013-04-24 21:10:00,
2013-04-24 16:13:00,53.1,44.7,31.01,SW,220,4.9,4.9,73,0.00,,,0.00,VWS V13.01,2013-04-24 21:13:00,
2013-04-24 16:14:00,53.1,44.7,31.01,SW,229,5.4,5.4,73,0.00,,,0.00,VWS V13.01,2013-04-24 21:14:00,
2013-04-24 16:15:00,53.1,44.7,31.01,WSW,252,3.6,3.6,73,0.00,,,0.00,VWS V13.01,2013-04-24 21:15:00,
2013-04-24 16:18:00,53.2,44.8,31.01,WSW,253,8.7,8.7,73,0.00,,,0.00,VWS V13.01,2013-04-24 21:18:00,
2013-04-24 16:19:00,53.2,44.8,31.01,West,260,5.4,5.4,73,0.00,,,0.00,VWS V13.01,2013-04-24 21:19:00,
2013-04-24 16:20:00,53.4,45.0,31.01,West,264,4.0,4.0,73,0.00,,,0.00,VWS V13.01,2013-04-24 21:20:00,
2013-04-24 16:23:00,53.1,44.7,31.01,West,271,4.9,4.9,73,0.00,,,0.00,VWS V13.01,2013-04-24 21:23:00,
2013-04-24 16:24:00,53.2,44.8,31.01,WSW,251,4.0,4.0,73,0.00,,,0.00,VWS V13.01,2013-04-24 21:24:00,
2013-04-24 16:25:00,53.2,44.8,31.01,WSW,237,4.9,4.9,73,0.00,,,0.00,VWS V13.01,2013-04-24 21:25:00,
2013-04-24 16:28:00,53.6,42.9,31.01,WNW,283,5.8,5.8,67,0.00,,,0.00,VWS V13.01,2013-04-24 21:28:00,
2013-04-24 16:29:00,53.4,45.0,31.01,WSW,251,5.4,5.4,73,0.00,,,0.00,VWS V13.01,2013-04-24 21:29:00,
2013-04-24 16:30:00,53.6,42.9,31.01,SW,220,7.2,7.2,67,0.00,,,0.00,VWS V13.01,2013-04-24 21:30:00,
2013-04-24 16:33:00,53.4,45.0,31.01,SW,229,5.4,5.4,73,0.00,,,0.00,VWS V13.01,2013-04-24 21:33:00,
2013-04-24 16:34:00,53.6,42.9,31.01,WSW,250,4.0,4.0,67,0.00,,,0.00,VWS V13.01,2013-04-24 21:34:00,
2013-04-24 16:35:00,54.1,43.4,31.01,SW,223,3.1,3.1,67,0.00,,,0.00,VWS V13.01,2013-04-24 21:35:00,
2013-04-24 16:36:00,54.5,43.8,31.01,SSW,198,3.6,3.6,67,0.00,,,0.00,VWS V13.01,2013-04-24 21:36:00,
2013-04-24 16:38:00,54.9,44.1,31.01,WSW,238,7.6,7.6,67,0.00,,,0.00,VWS V13.01,2013-04-24 21:38:00,
2013-04-24 16:39:00,55.0,44.3,31.01,SW,222,6.3,6.3,67,0.00,,,0.00,VWS V13.01,2013-04-24 21:39:00,
2013-04-24 16:40:00,54.9,44.1,31.01,SW,236,8.1,8.1,67,0.00,,,0.00,VWS V13.01,2013-04-24 21:40:00,
2013-04-24 16:41:00,54.9,44.1,31.01,SW,227,11.0,11.0,67,0.00,,,0.00,VWS V13.01,2013-04-24 21:41:00,
2013-04-24 16:43:00,54.5,43.8,31.01,WSW,253,3.6,3.6,67,0.00,,,0.00,VWS V13.01,2013-04-24 21:43:00,
2013-04-24 16:44:00,54.5,43.8,31.01,SW,231,4.9,4.9,67,0.00,,,0.00,VWS V13.01,2013-04-24 21:44:00,
2013-04-24 16:45:00,53.8,43.1,31.01,SSW,213,5.4,5.4,67,0.00,,,0.00,VWS V13.01,2013-04-24 21:45:00,
2013-04-24 16:46:00,53.8,43.1,31.01,SW,220,5.8,5.8,67,0.00,,,0.00,VWS V13.01,2013-04-24 21:46:00,
2013-04-24 16:48:00,53.8,43.1,31.01,West,269,3.6,3.6,67,0.00,,,0.00,VWS V13.01,2013-04-24 21:48:00,
2013-04-24 16:49:00,53.6,42.9,31.01,WSW,255,6.3,6.3,67,0.00,,,0.00,VWS V13.01,2013-04-24 21:49:00,
2013-04-24 16:50:00,53.8,43.1,31.01,WSW,258,4.9,4.9,67,0.00,,,0.00,VWS V13.01,2013-04-24 21:50:00,
2013-04-24 16:51:00,54.0,43.3,31.01,WSW,244,5.4,5.4,67,0.00,,,0.00,VWS V13.01,2013-04-24 21:51:00,
2013-04-24 16:53:00,54.0,43.3,31.01,NW,323,3.6,3.6,67,0.00,,,0.00,VWS V13.01,2013-04-24 21:53:00,
2013-04-24 16:54:00,53.8,43.1,31.01,WSW,246,5.4,5.4,67,0.00,,,0.00,VWS V13.01,2013-04-24 21:54:00,
2013-04-24 16:55:00,53.1,44.7,31.01,West,281,7.2,7.2,73,0.00,,,0.00,VWS V13.01,2013-04-24 21:55:00,
2013-04-24 16:56:00,52.9,44.5,31.01,WSW,257,3.6,3.6,73,0.00,,,0.00,VWS V13.01,2013-04-24 21:56:00,
2013-04-24 16:58:00,52.9,44.5,31.01,West,264,5.4,5.4,73,0.00,,,0.00,VWS V13.01,2013-04-24 21:58:00,
2013-04-24 16:59:00,53.1,44.7,31.01,West,271,10.5,10.5,73,0.00,,,0.00,VWS V13.01,2013-04-24 21:59:00,
2013-04-24 17:00:00,52.5,44.1,31.01,West,268,5.8,5.8,73,0.00,,,0.00,VWS V13.01,2013-04-24 22:00:00,
2013-04-24 17:01:00,52.3,44.0,31.01,WSW,241,6.3,6.3,73,0.00,,,0.00,VWS V13.01,2013-04-24 22:01:00,
2013-04-24 17:03:00,52.9,44.5,31.01,WSW,238,3.6,3.6,73,0.00,,,0.00,VWS V13.01,2013-04-24 22:03:00,
2013-04-24 17:04:00,52.9,44.5,31.01,WSW,248,3.6,3.6,73,0.00,,,0.00,VWS V13.01,2013-04-24 22:04:00,
2013-04-24 17:05:00,53.1,44.7,31.01,WSW,254,4.0,4.0,73,0.00,,,0.00,VWS V13.01,2013-04-24 22:05:00,
2013-04-24 17:06:00,53.2,44.8,31.01,WSW,239,6.3,6.3,73,0.00,,,0.00,VWS V13.01,2013-04-24 22:06:00,
2013-04-24 17:08:00,53.4,45.0,31.01,SW,229,3.6,3.6,73,0.00,,,0.00,VWS V13.01,2013-04-24 22:08:00,
2013-04-24 17:09:00,53.2,44.8,31.01,SSW,212,5.8,5.8,73,0.00,,,0.00,VWS V13.01,2013-04-24 22:09:00,
2013-04-24 17:10:00,53.2,44.8,31.01,West,274,8.3,8.3,73,0.00,,,0.00,VWS V13.01,2013-04-24 22:10:00,
2013-04-24 17:11:00,53.1,44.7,31.01,West,263,5.4,5.4,73,0.00,,,0.00,VWS V13.01,2013-04-24 22:11:00,
2013-04-24 17:14:00,53.2,44.8,31.01,West,264,8.3,8.3,73,0.00,,,0.00,VWS V13.01,2013-04-24 22:14:00,
2013-04-24 17:15:00,53.1,44.7,31.01,WSW,254,5.8,5.8,73,0.00,,,0.00,VWS V13.01,2013-04-24 22:15:00,
2013-04-24 17:16:00,53.1,44.7,31.01,SW,224,0.0,0.0,73,0.00,,,0.00,VWS V13.01,2013-04-24 22:16:00,
2013-04-24 17:19:00,52.9,44.5,31.01,WSW,241,3.1,3.1,73,0.00,,,0.00,VWS V13.01,2013-04-24 22:19:00,
2013-04-24 17:20:00,52.9,44.5,31.01,WSW,241,2.2,2.2,73,0.00,,,0.00,VWS V13.01,2013-04-24 22:20:00,
2013-04-24 17:21:00,52.9,44.5,31.01,SW,224,3.6,3.6,73,0.00,,,0.00,VWS V13.01,2013-04-24 22:21:00,
2013-04-24 17:24:00,52.7,44.3,31.01,West,264,0.0,0.0,73,0.00,,,0.00,VWS V13.01,2013-04-24 22:24:00,
2013-04-24 17:25:00,52.9,44.5,31.01,SW,224,4.5,4.5,73,0.00,,,0.00,VWS V13.01,2013-04-24 22:25:00,
2013-04-24 17:26:00,52.9,44.5,31.01,West,271,2.7,2.7,73,0.00,,,0.00,VWS V13.01,2013-04-24 22:26:00,
2013-04-24 17:29:00,53.8,43.1,31.01,West,281,3.1,3.1,67,0.00,,,0.00,VWS V13.01,2013-04-24 22:29:00,
2013-04-24 17:30:00,53.6,42.9,31.01,West,264,5.4,5.4,67,0.00,,,0.00,VWS V13.01,2013-04-24 22:30:00,
2013-04-24 17:31:00,53.6,42.9,31.01,West,268,2.7,2.7,67,0.00,,,0.00,VWS V13.01,2013-04-24 22:31:00,
2013-04-24 17:32:00,54.3,43.6,31.01,SW,222,4.0,4.0,67,0.00,,,0.00,VWS V13.01,2013-04-24 22:32:00,
2013-04-24 17:34:00,54.7,44.0,31.01,SW,236,5.4,5.4,67,0.00,,,0.00,VWS V13.01,2013-04-24 22:34:00,
2013-04-24 17:35:00,54.7,44.0,31.01,SW,236,3.1,3.1,67,0.00,,,0.00,VWS V13.01,2013-04-24 22:35:00,
2013-04-24 17:36:00,54.9,44.1,31.01,SW,219,4.9,4.9,67,0.00,,,0.00,VWS V13.01,2013-04-24 22:36:00,
2013-04-24 17:37:00,54.9,44.1,31.01,SW,219,2.7,2.7,67,0.00,,,0.00,VWS V13.01,2013-04-24 22:37:00,
2013-04-24 17:39:00,55.8,45.0,31.01,WSW,239,2.7,2.7,67,0.00,,,0.00,VWS V13.01,2013-04-24 22:39:00,
2013-04-24 17:40:00,55.9,45.2,31.01,SW,217,6.3,6.3,67,0.00,,,0.00,VWS V13.01,2013-04-24 22:40:00,
2013-04-24 17:41:00,55.9,45.2,31.01,SW,216,3.6,3.6,67,0.00,,,0.00,VWS V13.01,2013-04-24 22:41:00,
2013-04-24 17:42:00,55.9,45.2,31.01,SW,223,3.6,3.6,67,0.00,,,0.00,VWS V13.01,2013-04-24 22:42:00,
2013-04-24 17:44:00,55.9,45.2,31.01,SW,217,5.4,5.4,67,0.00,,,0.00,VWS V13.01,2013-04-24 22:44:00,
2013-04-24 17:45:00,55.8,45.0,31.01,SW,236,3.1,3.1,67,0.00,,,0.00,VWS V13.01,2013-04-24 22:45:00,
2013-04-24 17:46:00,55.6,44.8,31.01,SW,222,3.1,3.1,67,0.00,,,0.00,VWS V13.01,2013-04-24 22:46:00,
2013-04-24 17:47:00,55.0,44.3,31.01,SSW,207,3.6,3.6,67,0.00,,,0.00,VWS V13.01,2013-04-24 22:47:00,
2013-04-24 17:49:00,54.7,44.0,31.01,WSW,240,5.4,5.4,67,0.00,,,0.00,VWS V13.01,2013-04-24 22:49:00,
2013-04-24 17:50:00,54.9,44.1,31.01,SW,233,3.1,3.1,67,0.00,,,0.00,VWS V13.01,2013-04-24 22:50:00,
2013-04-24 17:51:00,54.9,44.1,31.01,SW,229,5.8,5.8,67,0.00,,,0.00,VWS V13.01,2013-04-24 22:51:00,
2013-04-24 17:52:00,55.0,44.3,31.01,WSW,254,5.8,5.8,67,0.00,,,0.00,VWS V13.01,2013-04-24 22:52:00,
2013-04-24 17:54:00,54.7,44.0,31.01,SW,229,2.7,2.7,67,0.00,,,0.00,VWS V13.01,2013-04-24 22:54:00,
2013-04-24 17:55:00,54.7,44.0,31.01,SSW,200,3.1,3.1,67,0.00,,,0.00,VWS V13.01,2013-04-24 22:55:00,
2013-04-24 17:56:00,54.5,43.8,31.01,SW,233,4.0,4.0,67,0.00,,,0.00,VWS V13.01,2013-04-24 22:56:00,
2013-04-24 17:57:00,54.5,43.8,31.01,WSW,238,2.7,2.7,67,0.00,,,0.00,VWS V13.01,2013-04-24 22:57:00,
2013-04-24 17:59:00,54.9,44.1,31.01,WSW,256,0.0,0.0,67,0.00,,,0.00,VWS V13.01,2013-04-24 22:59:00,
2013-04-24 18:00:00,55.0,44.3,31.01,SW,224,3.6,3.6,67,0.00,,,0.00,VWS V13.01,2013-04-24 23:00:00,
2013-04-24 18:01:00,54.7,44.0,31.01,SW,236,5.4,5.4,67,0.00,,,0.00,VWS V13.01,2013-04-24 23:01:00,
2013-04-24 18:02:00,54.5,43.8,31.01,WSW,237,4.0,4.0,67,0.00,,,0.00,VWS V13.01,2013-04-24 23:02:00,
2013-04-24 18:04:00,54.1,43.4,31.01,SW,233,4.0,4.0,67,0.00,,,0.00,VWS V13.01,2013-04-24 23:04:00,
2013-04-24 18:05:00,54.0,43.3,31.01,West,276,2.7,2.7,67,0.00,,,0.00,VWS V13.01,2013-04-24 23:05:00,
2013-04-24 18:06:00,53.8,43.1,31.01,WSW,242,4.0,4.0,67,0.00,,,0.00,VWS V13.01,2013-04-24 23:06:00,
2013-04-24 18:07:00,53.8,43.1,31.01,SW,233,3.1,3.1,67,0.00,,,0.00,VWS V13.01,2013-04-24 23:07:00,
2013-04-24 18:09:00,53.4,45.0,31.01,WSW,243,3.6,3.6,73,0.00,,,0.00,VWS V13.01,2013-04-24 23:09:00,
2013-04-24 18:10:00,53.1,44.7,31.01,SW,231,3.6,3.6,73,0.00,,,0.00,VWS V13.01,2013-04-24 23:10:00,
2013-04-24 18:11:00,53.1,44.7,31.01,SW,236,3.6,3.6,73,0.00,,,0.00,VWS V13.01,2013-04-24 23:11:00,
2013-04-24 18:12:00,52.9,44.5,31.01,WSW,243,4.5,4.5,73,0.00,,,0.00,VWS V13.01,2013-04-24 23:12:00,
2013-04-24 18:14:00,52.5,44.1,31.01,WSW,243,3.6,3.6,73,0.00,,,0.00,VWS V13.01,2013-04-24 23:14:00,
2013-04-24 18:15:00,52.3,44.0,31.01,SW,231,5.4,5.4,73,0.00,,,0.00,VWS V13.01,2013-04-24 23:15:00,
2013-04-24 18:16:00,52.3,44.0,31.01,WSW,246,3.1,3.1,73,0.00,,,0.00,VWS V13.01,2013-04-24 23:16:00,
2013-04-24 18:17:00,52.0,43.6,31.01,SSW,209,4.0,4.0,73,0.00,,,0.00,VWS V13.01,2013-04-24 23:17:00,
2013-04-24 18:19:00,51.8,43.4,31.01,SW,230,4.0,4.0,73,0.00,,,0.00,VWS V13.01,2013-04-24 23:19:00,
2013-04-24 18:20:00,51.8,43.4,31.01,SW,226,4.9,4.9,73,0.00,,,0.00,VWS V13.01,2013-04-24 23:20:00,
2013-04-24 18:21:00,51.8,43.4,31.01,SW,226,3.6,3.6,73,0.00,,,0.00,VWS V13.01,2013-04-24 23:21:00,
2013-04-24 18:22:00,52.0,43.6,31.01,SW,235,7.6,7.6,73,0.00,,,0.00,VWS V13.01,2013-04-24 23:22:00,
2013-04-24 18:24:00,51.8,43.4,31.01,SW,235,5.4,5.4,73,0.00,,,0.00,VWS V13.01,2013-04-24 23:24:00,
2013-04-24 18:26:00,51.8,43.4,31.01,WSW,240,5.8,5.8,73,0.00,,,0.00,VWS V13.01,2013-04-24 23:26:00,
2013-04-24 18:27:00,51.6,43.3,31.01,SW,218,5.4,5.4,73,0.00,,,0.00,VWS V13.01,2013-04-24 23:27:00,
2013-04-24 18:29:00,51.6,43.3,31.01,SSW,213,3.1,3.1,73,0.00,,,0.00,VWS V13.01,2013-04-24 23:29:00,
2013-04-24 18:31:00,51.4,43.1,31.01,SSW,205,8.1,8.1,73,0.00,,,0.00,VWS V13.01,2013-04-24 23:31:00,
2013-04-24 18:33:00,51.4,43.1,31.01,SW,224,4.0,4.0,73,0.00,,,0.00,VWS V13.01,2013-04-24 23:33:00,
2013-04-24 18:34:00,51.4,43.1,31.01,SW,219,3.6,3.6,73,0.00,,,0.00,VWS V13.01,2013-04-24 23:34:00,
2013-04-24 18:36:00,51.6,43.3,31.01,WSW,239,5.4,5.4,73,0.00,,,0.00,VWS V13.01,2013-04-24 23:36:00,
2013-04-24 18:38:00,51.6,43.3,31.01,SSW,209,4.0,4.0,73,0.00,,,0.00,VWS V13.01,2013-04-24 23:38:00,
2013-04-24 18:39:00,51.4,43.1,31.01,SW,219,6.3,6.3,73,0.00,,,0.00,VWS V13.01,2013-04-24 23:39:00,
2013-04-24 18:41:00,51.6,43.3,31.01,SW,218,4.5,4.5,73,0.00,,,0.00,VWS V13.01,2013-04-24 23:41:00,
2013-04-24 18:43:00,51.6,43.3,31.01,SSW,213,3.1,3.1,73,0.00,,,0.00,VWS V13.01,2013-04-24 23:43:00,
2013-04-24 18:44:00,51.8,43.4,31.01,SW,223,4.0,4.0,73,0.00,,,0.00,VWS V13.01,2013-04-24 23:44:00,
2013-04-24 18:46:00,51.8,43.4,31.01,SW,218,3.6,3.6,73,0.00,,,0.00,VWS V13.01,2013-04-24 23:46:00,
2013-04-24 18:48:00,52.0,43.6,31.01,SW,222,4.9,4.9,73,0.00,,,0.00,VWS V13.01,2013-04-24 23:48:00,
2013-04-24 18:49:00,52.0,43.6,31.01,SSW,206,4.0,4.0,73,0.00,,,0.00,VWS V13.01,2013-04-24 23:49:00,
2013-04-24 18:51:00,51.8,43.4,31.01,SSW,206,3.6,3.6,73,0.00,,,0.00,VWS V13.01,2013-04-24 23:51:00,
2013-04-24 18:53:00,51.3,42.9,31.01,SW,215,6.3,6.3,73,0.00,,,0.00,VWS V13.01,2013-04-24 23:53:00,
2013-04-24 18:55:00,51.4,43.1,31.01,SW,221,5.4,5.4,73,0.00,,,0.00,VWS V13.01,2013-04-24 23:55:00,
2013-04-24 18:56:00,51.8,43.4,31.01,SW,223,4.9,4.9,73,0.00,,,0.00,VWS V13.01,2013-04-24 23:56:00,
2013-04-24 18:57:00,52.0,43.6,31.01,SSW,201,5.4,5.4,73,0.00,,,0.00,VWS V13.01,2013-04-24 23:57:00,
2013-04-24 18:58:00,52.3,44.0,31.01,SSW,212,5.8,5.8,73,0.00,,,0.00,VWS V13.01,2013-04-24 23:58:00,
2013-04-24 19:00:00,52.2,43.8,31.01,SSW,202,5.8,5.8,73,0.00,,,0.00,VWS V13.01,2013-04-25 00:00:00,
2013-04-24 19:01:00,52.5,44.1,31.01,SSW,212,4.0,4.0,73,0.00,,,0.00,VWS V13.01,2013-04-25 00:01:00,
2013-04-24 19:02:00,52.5,44.1,31.01,SSW,213,4.0,4.0,73,0.00,,,0.00,VWS V13.01,2013-04-25 00:02:00,
2013-04-24 19:03:00,52.3,44.0,31.01,SW,232,4.0,4.0,73,0.00,,,0.00,VWS V13.01,2013-04-25 00:03:00,
2013-04-24 19:05:00,52.2,43.8,31.01,SW,228,3.1,3.1,73,0.00,,,0.00,VWS V13.01,2013-04-25 00:05:00,
2013-04-24 19:06:00,52.2,43.8,31.01,SW,215,3.6,3.6,73,0.00,,,0.00,VWS V13.01,2013-04-25 00:06:00,
2013-04-24 19:07:00,52.2,43.8,31.01,SSW,209,5.8,5.8,73,0.00,,,0.00,VWS V13.01,2013-04-25 00:07:00,
2013-04-24 19:08:00,52.0,43.6,31.01,SSW,209,4.0,4.0,73,0.00,,,0.00,VWS V13.01,2013-04-25 00:08:00,
2013-04-24 19:10:00,52.0,43.6,31.01,SSW,210,4.0,4.0,73,0.00,,,0.00,VWS V13.01,2013-04-25 00:10:00,
2013-04-24 19:11:00,52.2,43.8,31.01,SSW,210,4.0,4.0,73,0.00,,,0.00,VWS V13.01,2013-04-25 00:11:00,
2013-04-24 19:12:00,52.3,44.0,31.01,SSW,208,4.0,4.0,73,0.00,,,0.00,VWS V13.01,2013-04-25 00:12:00,
2013-04-24 19:13:00,52.3,44.0,31.01,SSW,208,4.0,4.0,73,0.00,,,0.00,VWS V13.01,2013-04-25 00:13:00,
2013-04-24 19:15:00,52.2,43.8,31.01,SSW,208,4.0,4.0,73,0.00,,,0.00,VWS V13.01,2013-04-25 00:15:00,
2013-04-24 19:16:00,51.8,43.4,31.01,SSW,204,5.8,5.8,73,0.00,,,0.00,VWS V13.01,2013-04-25 00:16:00,
2013-04-24 19:17:00,52.0,43.6,31.01,SSW,204,4.0,4.0,73,0.00,,,0.00,VWS V13.01,2013-04-25 00:17:00,
2013-04-24 19:18:00,52.0,43.6,31.01,SSW,207,6.3,6.3,73,0.00,,,0.00,VWS V13.01,2013-04-25 00:18:00,
2013-04-24 19:20:00,51.8,43.4,31.01,SW,218,3.6,3.6,73,0.00,,,0.00,VWS V13.01,2013-04-25 00:20:00,
2013-04-24 19:21:00,51.1,42.7,31.01,South,175,4.0,4.0,73,0.00,,,0.00,VWS V13.01,2013-04-25 00:21:00,
2013-04-24 19:22:00,51.1,42.7,31.01,SSW,198,6.3,6.3,73,0.00,,,0.00,VWS V13.01,2013-04-25 00:22:00,
2013-04-24 19:23:00,50.7,42.4,31.01,SSW,204,3.1,3.1,73,0.00,,,0.00,VWS V13.01,2013-04-25 00:23:00,
2013-04-24 19:25:00,50.4,42.0,31.01,SSW,197,4.9,4.9,73,0.00,,,0.00,VWS V13.01,2013-04-25 00:25:00,
2013-04-24 19:27:00,50.2,41.9,31.01,SSW,197,3.6,3.6,73,0.00,,,0.00,VWS V13.01,2013-04-25 00:27:00,
2013-04-24 19:28:00,50.2,41.9,31.01,South,186,6.3,6.3,73,0.00,,,0.00,VWS V13.01,2013-04-25 00:28:00,
2013-04-24 19:30:00,49.6,41.3,31.01,SSW,205,4.9,4.9,73,0.00,,,0.00,VWS V13.01,2013-04-25 00:30:00,
2013-04-24 19:32:00,49.1,40.8,31.01,SSW,207,3.6,3.6,73,0.00,,,0.00,VWS V13.01,2013-04-25 00:32:00,
2013-04-24 19:33:00,48.9,40.7,31.01,SSW,206,3.6,3.6,73,0.00,,,0.00,VWS V13.01,2013-04-25 00:33:00,
2013-04-24 19:35:00,48.7,40.5,31.01,SSW,205,4.0,4.0,73,0.00,,,0.00,VWS V13.01,2013-04-25 00:35:00,
2013-04-24 19:37:00,48.4,40.1,31.01,SSW,212,3.6,3.6,73,0.00,,,0.00,VWS V13.01,2013-04-25 00:37:00,
2013-04-24 19:38:00,48.2,40.0,31.01,SSW,212,4.0,4.0,73,0.00,,,0.00,VWS V13.01,2013-04-25 00:38:00,
2013-04-24 19:40:00,48.0,41.8,31.01,SSW,212,4.0,4.0,79,0.00,,,0.00,VWS V13.01,2013-04-25 00:40:00,
2013-04-24 19:42:00,47.8,41.7,31.01,SSW,212,4.0,4.0,79,0.00,,,0.00,VWS V13.01,2013-04-25 00:42:00,
2013-04-24 19:43:00,47.7,41.5,31.01,SSW,204,4.0,4.0,79,0.00,,,0.00,VWS V13.01,2013-04-25 00:43:00,
2013-04-24 19:45:00,47.5,41.3,31.01,SSW,204,4.0,4.0,79,0.00,,,0.00,VWS V13.01,2013-04-25 00:45:00,
2013-04-24 19:47:00,47.3,41.1,31.01,SSW,200,4.9,4.9,79,0.00,,,0.00,VWS V13.01,2013-04-25 00:47:00,
2013-04-24 19:48:00,47.3,41.1,31.01,SSW,199,4.0,4.0,79,0.00,,,0.00,VWS V13.01,2013-04-25 00:48:00,
2013-04-24 19:50:00,47.1,41.0,31.01,SSW,203,5.4,5.4,79,0.00,,,0.00,VWS V13.01,2013-04-25 00:50:00,
2013-04-24 19:52:00,47.1,41.0,31.01,SSW,196,4.9,4.9,79,0.00,,,0.00,VWS V13.01,2013-04-25 00:52:00,
2013-04-24 19:53:00,47.3,41.1,31.01,SSW,200,5.4,5.4,79,0.00,,,0.00,VWS V13.01,2013-04-25 00:53:00,
2013-04-24 19:55:00,47.3,41.1,31.01,SSW,200,5.8,5.8,79,0.00,,,0.00,VWS V13.01,2013-04-25 00:55:00,
2013-04-24 19:57:00,47.5,41.3,31.01,SSW,205,7.6,7.6,79,0.00,,,0.00,VWS V13.01,2013-04-25 00:57:00,
2013-04-24 19:58:00,47.5,41.3,31.01,SSW,194,5.4,5.4,79,0.00,,,0.00,VWS V13.01,2013-04-25 00:58:00,
2013-04-24 20:01:00,47.3,41.1,31.01,South,191,7.6,7.6,79,0.00,,,0.00,VWS V13.01,2013-04-25 01:01:00,
2013-04-24 20:02:00,47.3,41.1,31.01,SSW,201,6.3,6.3,79,0.00,,,0.00,VWS V13.01,2013-04-25 01:02:00,
2013-04-24 20:04:00,47.3,41.1,31.01,SSW,208,4.0,4.0,79,0.00,,,0.00,VWS V13.01,2013-04-25 01:04:00,
2013-04-24 20:06:00,46.9,40.8,31.01,SSW,206,4.5,4.5,79,0.00,,,0.00,VWS V13.01,2013-04-25 01:06:00,
2013-04-24 20:07:00,46.9,40.8,31.01,SSW,199,4.9,4.9,79,0.00,,,0.00,VWS V13.01,2013-04-25 01:07:00,
2013-04-24 20:08:00,46.8,40.6,31.01,South,190,5.4,5.4,79,0.00,,,0.00,VWS V13.01,2013-04-25 01:08:00,
2013-04-24 20:09:00,46.8,40.6,31.01,South,188,5.4,5.4,79,0.00,,,0.00,VWS V13.01,2013-04-25 01:09:00,
2013-04-24 20:11:00,46.8,40.6,31.01,South,189,4.9,4.9,79,0.00,,,0.00,VWS V13.01,2013-04-25 01:11:00,
2013-04-24 20:12:00,46.6,40.4,31.01,SSW,196,4.0,4.0,79,0.00,,,0.00,VWS V13.01,2013-04-25 01:12:00,
2013-04-24 20:13:00,46.6,40.4,31.01,SSW,209,4.9,4.9,79,0.00,,,0.00,VWS V13.01,2013-04-25 01:13:00,
2013-04-24 20:14:00,46.4,40.2,31.01,SSW,202,3.6,3.6,79,0.00,,,0.00,VWS V13.01,2013-04-25 01:14:00,
2013-04-24 20:16:00,46.2,40.1,31.01,SSW,200,4.9,4.9,79,0.00,,,0.00,VWS V13.01,2013-04-25 01:16:00,
2013-04-24 20:17:00,46.0,39.9,31.01,SSW,194,4.0,4.0,79,0.00,,,0.00,VWS V13.01,2013-04-25 01:17:00,
2013-04-24 20:19:00,46.0,39.9,31.01,South,187,5.4,5.4,79,0.00,,,0.00,VWS V13.01,2013-04-25 01:19:00,
2013-04-24 20:21:00,45.9,39.7,31.01,South,190,5.4,5.4,79,0.00,,,0.00,VWS V13.01,2013-04-25 01:21:00,
2013-04-24 20:23:00,45.9,39.7,31.01,SSW,193,4.9,4.9,79,0.00,,,0.00,VWS V13.01,2013-04-25 01:23:00,
2013-04-24 20:24:00,45.7,39.5,31.01,SSW,196,4.0,4.0,79,0.00,,,0.00,VWS V13.01,2013-04-25 01:24:00,
2013-04-24 20:26:00,45.5,39.4,31.01,South,179,5.4,5.4,79,0.00,,,0.00,VWS V13.01,2013-04-25 01:26:00,
2013-04-24 20:28:00,45.3,39.2,31.01,South,189,5.4,5.4,79,0.00,,,0.00,VWS V13.01,2013-04-25 01:28:00,
2013-04-24 20:29:00,45.3,39.2,31.01,SSW,195,5.4,5.4,79,0.00,,,0.00,VWS V13.01,2013-04-25 01:29:00,
2013-04-24 20:31:00,45.3,39.2,31.01,South,178,4.0,4.0,79,0.00,,,0.00,VWS V13.01,2013-04-25 01:31:00,
2013-04-24 20:33:00,45.3,39.2,31.01,SSW,200,5.4,5.4,79,0.00,,,0.00,VWS V13.01,2013-04-25 01:33:00,
2013-04-24 20:34:00,45.3,39.2,31.01,SSW,192,5.4,5.4,79,0.00,,,0.00,VWS V13.01,2013-04-25 01:34:00,
2013-04-24 20:36:00,45.3,39.2,31.01,SSW,196,5.4,5.4,79,0.00,,,0.00,VWS V13.01,2013-04-25 01:36:00,
2013-04-24 20:38:00,45.3,39.2,31.01,SSW,196,4.9,4.9,79,0.00,,,0.00,VWS V13.01,2013-04-25 01:38:00,
2013-04-24 20:39:00,45.3,39.2,31.01,South,190,5.4,5.4,79,0.00,,,0.00,VWS V13.01,2013-04-25 01:39:00,
2013-04-24 20:41:00,45.3,39.2,31.01,SSW,194,5.4,5.4,79,0.00,,,0.00,VWS V13.01,2013-04-25 01:41:00,
2013-04-24 20:43:00,45.3,39.2,31.01,SSW,197,4.9,4.9,79,0.00,,,0.00,VWS V13.01,2013-04-25 01:43:00,
2013-04-24 20:44:00,45.3,39.2,31.01,SSW,196,6.3,6.3,79,0.00,,,0.00,VWS V13.01,2013-04-25 01:44:00,
2013-04-24 20:46:00,45.1,39.0,31.01,South,190,4.9,4.9,79,0.00,,,0.00,VWS V13.01,2013-04-25 01:46:00,
2013-04-24 20:48:00,45.1,39.0,31.01,SSW,199,5.4,5.4,79,0.00,,,0.00,VWS V13.01,2013-04-25 01:48:00,
2013-04-24 20:49:00,45.1,39.0,31.01,South,189,4.9,4.9,79,0.00,,,0.00,VWS V13.01,2013-04-25 01:49:00,
2013-04-24 20:52:00,44.8,38.7,31.01,South,186,5.8,5.8,79,0.00,,,0.00,VWS V13.01,2013-04-25 01:52:00,
2013-04-24 20:53:00,44.8,38.7,31.01,South,186,4.9,4.9,79,0.00,,,0.00,VWS V13.01,2013-04-25 01:53:00,
2013-04-24 20:54:00,44.6,38.5,31.01,South,183,4.9,4.9,79,0.00,,,0.00,VWS V13.01,2013-04-25 01:54:00,
2013-04-24 20:57:00,44.6,38.5,31.01,South,191,3.1,3.1,79,0.00,,,0.00,VWS V13.01,2013-04-25 01:57:00,
2013-04-24 20:58:00,44.4,40.2,31.01,South,190,4.0,4.0,85,0.00,,,0.00,VWS V13.01,2013-04-25 01:58:00,
2013-04-24 20:59:00,44.6,38.5,31.01,South,190,5.4,5.4,79,0.00,,,0.00,VWS V13.01,2013-04-25 01:59:00,
2013-04-24 21:02:00,44.6,38.5,31.01,South,187,5.8,5.8,79,0.00,,,0.00,VWS V13.01,2013-04-25 02:02:00,
2013-04-24 21:03:00,44.4,40.2,31.01,South,187,4.9,4.9,85,0.00,,,0.00,VWS V13.01,2013-04-25 02:03:00,
2013-04-24 21:04:00,44.6,38.5,31.01,South,184,6.3,6.3,79,0.00,,,0.00,VWS V13.01,2013-04-25 02:04:00,
2013-04-24 21:07:00,44.6,38.5,31.01,South,179,5.4,5.4,79,0.00,,,0.00,VWS V13.01,2013-04-25 02:07:00,
2013-04-24 21:08:00,44.6,38.5,31.01,SSW,193,5.4,5.4,79,0.00,,,0.00,VWS V13.01,2013-04-25 02:08:00,
2013-04-24 21:09:00,44.4,40.2,31.01,South,182,6.3,6.3,85,0.00,,,0.00,VWS V13.01,2013-04-25 02:09:00,
2013-04-24 21:12:00,44.2,40.0,31.01,South,187,5.4,5.4,85,0.00,,,0.00,VWS V13.01,2013-04-25 02:12:00,
2013-04-24 21:13:00,44.2,40.0,31.01,South,170,5.8,5.8,85,0.00,,,0.00,VWS V13.01,2013-04-25 02:13:00,
2013-04-24 21:14:00,44.2,40.0,31.01,South,177,5.4,5.4,85,0.00,,,0.00,VWS V13.01,2013-04-25 02:14:00,
2013-04-24 21:17:00,44.2,40.0,31.01,South,182,5.4,5.4,85,0.00,,,0.00,VWS V13.01,2013-04-25 02:17:00,
2013-04-24 21:18:00,44.2,40.0,31.01,South,175,5.8,5.8,85,0.00,,,0.00,VWS V13.01,2013-04-25 02:18:00,
2013-04-24 21:19:00,44.2,40.0,31.01,South,170,5.8,5.8,85,0.00,,,0.00,VWS V13.01,2013-04-25 02:19:00,
2013-04-24 21:22:00,44.1,39.8,31.01,South,185,5.4,5.4,85,0.00,,,0.00,VWS V13.01,2013-04-25 02:22:00,
2013-04-24 21:23:00,44.1,39.8,31.01,South,183,5.8,5.8,85,0.00,,,0.00,VWS V13.01,2013-04-25 02:23:00,
2013-04-24 21:24:00,44.1,39.8,31.01,South,177,4.9,4.9,85,0.00,,,0.00,VWS V13.01,2013-04-25 02:24:00,
2013-04-24 21:25:00,43.9,39.7,31.01,South,178,5.4,5.4,85,0.00,,,0.00,VWS V13.01,2013-04-25 02:25:00,
2013-04-24 21:27:00,43.7,39.5,31.01,South,180,5.8,5.8,85,0.00,,,0.00,VWS V13.01,2013-04-25 02:27:00,
2013-04-24 21:28:00,43.7,39.5,31.01,South,169,5.8,5.8,85,0.00,,,0.00,VWS V13.01,2013-04-25 02:28:00,
2013-04-24 21:29:00,43.5,39.3,31.01,South,174,5.8,5.8,85,0.00,,,0.00,VWS V13.01,2013-04-25 02:29:00,
2013-04-24 21:30:00,43.5,39.3,31.01,South,178,5.4,5.4,85,0.00,,,0.00,VWS V13.01,2013-04-25 02:30:00,
2013-04-24 21:32:00,43.3,39.1,31.01,SSE,168,6.3,6.3,85,0.00,,,0.00,VWS V13.01,2013-04-25 02:32:00,
2013-04-24 21:33:00,43.3,39.1,31.01,South,176,6.3,6.3,85,0.00,,,0.00,VWS V13.01,2013-04-25 02:33:00,
2013-04-24 21:34:00,43.2,39.0,31.01,South,184,5.4,5.4,85,0.00,,,0.00,VWS V13.01,2013-04-25 02:34:00,
2013-04-24 21:35:00,43.2,39.0,31.01,South,177,5.8,5.8,85,0.00,,,0.00,VWS V13.01,2013-04-25 02:35:00,
2013-04-24 21:37:00,43.2,39.0,31.01,South,174,6.3,6.3,85,0.00,,,0.00,VWS V13.01,2013-04-25 02:37:00,
2013-04-24 21:38:00,43.0,38.8,31.01,South,176,6.3,6.3,85,0.00,,,0.00,VWS V13.01,2013-04-25 02:38:00,
2013-04-24 21:39:00,43.0,38.8,31.01,South,169,4.9,4.9,85,0.00,,,0.00,VWS V13.01,2013-04-25 02:39:00,
2013-04-24 21:40:00,42.8,38.6,31.01,SSW,192,3.6,3.6,85,0.00,,,0.00,VWS V13.01,2013-04-25 02:40:00,
2013-04-24 21:43:00,42.4,38.3,31.01,South,170,3.6,3.6,85,0.00,,,0.00,VWS V13.01,2013-04-25 02:43:00,
2013-04-24 21:44:00,42.4,38.3,31.01,South,173,4.0,4.0,85,0.00,,,0.00,VWS V13.01,2013-04-25 02:44:00,
2013-04-24 21:45:00,42.4,38.3,31.01,South,175,4.9,4.9,85,0.00,,,0.00,VWS V13.01,2013-04-25 02:45:00,
2013-04-24 21:48:00,42.3,38.1,31.01,South,172,5.8,5.8,85,0.00,,,0.00,VWS V13.01,2013-04-25 02:48:00,
2013-04-24 21:49:00,42.4,38.3,31.01,South,178,5.4,5.4,85,0.00,,,0.00,VWS V13.01,2013-04-25 02:49:00,
2013-04-24 21:50:00,42.4,38.3,31.01,South,172,4.9,4.9,85,0.00,,,0.00,VWS V13.01,2013-04-25 02:50:00,
2013-04-24 21:53:00,42.4,38.3,31.01,South,175,5.8,5.8,85,0.00,,,0.00,VWS V13.01,2013-04-25 02:53:00,
2013-04-24 21:54:00,42.4,38.3,31.01,South,176,4.9,4.9,85,0.00,,,0.00,VWS V13.01,2013-04-25 02:54:00,
2013-04-24 21:55:00,42.4,38.3,31.01,South,173,4.0,4.0,85,0.00,,,0.00,VWS V13.01,2013-04-25 02:55:00,
2013-04-24 21:58:00,42.3,38.1,31.01,South,173,3.6,3.6,85,0.00,,,0.00,VWS V13.01,2013-04-25 02:58:00,
2013-04-24 21:59:00,42.3,38.1,31.01,South,172,4.9,4.9,85,0.00,,,0.00,VWS V13.01,2013-04-25 02:59:00,
2013-04-24 22:00:00,42.3,38.1,31.01,South,175,4.0,4.0,85,0.00,,,0.00,VWS V13.01,2013-04-25 03:00:00,
2013-04-24 22:03:00,42.3,38.1,31.01,South,176,5.8,5.8,85,0.00,,,0.00,VWS V13.01,2013-04-25 03:03:00,
2013-04-24 22:04:00,42.3,38.1,31.01,South,178,5.4,5.4,85,0.00,,,0.00,VWS V13.01,2013-04-25 03:04:00,
2013-04-24 22:05:00,42.3,38.1,31.01,South,179,5.4,5.4,85,0.00,,,0.00,VWS V13.01,2013-04-25 03:05:00,
2013-04-24 22:08:00,42.3,38.1,31.01,South,173,6.3,6.3,85,0.00,,,0.00,VWS V13.01,2013-04-25 03:08:00,
2013-04-24 22:09:00,42.1,37.9,31.01,South,177,8.1,8.1,85,0.00,,,0.00,VWS V13.01,2013-04-25 03:09:00,
2013-04-24 22:10:00,42.1,37.9,31.01,South,181,7.6,7.6,85,0.00,,,0.00,VWS V13.01,2013-04-25 03:10:00,
2013-04-24 22:13:00,42.3,38.1,31.01,South,175,5.8,5.8,85,0.00,,,0.00,VWS V13.01,2013-04-25 03:13:00,
2013-04-24 22:14:00,42.3,38.1,31.01,South,177,8.1,8.1,85,0.00,,,0.00,VWS V13.01,2013-04-25 03:14:00,
2013-04-24 22:15:00,42.1,37.9,31.01,South,174,6.3,6.3,85,0.00,,,0.00,VWS V13.01,2013-04-25 03:15:00,
2013-04-24 22:16:00,42.3,38.1,31.01,South,175,7.6,7.6,85,0.00,,,0.00,VWS V13.01,2013-04-25 03:16:00,
2013-04-24 22:18:00,42.3,38.1,31.01,South,170,5.8,5.8,85,0.00,,,0.00,VWS V13.01,2013-04-25 03:18:00,
2013-04-24 22:19:00,42.1,37.9,31.01,South,184,5.8,5.8,85,0.00,,,0.00,VWS V13.01,2013-04-25 03:19:00,
2013-04-24 22:20:00,42.1,37.9,31.01,South,176,5.4,5.4,85,0.00,,,0.00,VWS V13.01,2013-04-25 03:20:00,
2013-04-24 22:21:00,42.1,37.9,31.01,South,172,6.3,6.3,85,0.00,,,0.00,VWS V13.01,2013-04-25 03:21:00,
2013-04-24 22:23:00,42.1,37.9,31.01,South,172,5.4,5.4,85,0.00,,,0.00,VWS V13.01,2013-04-25 03:23:00,
2013-04-24 22:24:00,42.1,37.9,31.01,South,172,6.3,6.3,85,0.00,,,0.00,VWS V13.01,2013-04-25 03:24:00,
2013-04-24 22:25:00,42.1,37.9,31.01,South,172,6.3,6.3,85,0.00,,,0.00,VWS V13.01,2013-04-25 03:25:00,
2013-04-24 22:26:00,42.1,37.9,31.01,South,177,6.3,6.3,85,0.00,,,0.00,VWS V13.01,2013-04-25 03:26:00,
2013-04-24 22:28:00,42.1,37.9,31.01,South,169,6.7,6.7,85,0.00,,,0.00,VWS V13.01,2013-04-25 03:28:00,
2013-04-24 22:29:00,42.1,37.9,31.01,South,178,5.8,5.8,85,0.00,,,0.00,VWS V13.01,2013-04-25 03:29:00,
2013-04-24 22:30:00,41.9,37.7,31.01,South,169,5.4,5.4,85,0.00,,,0.00,VWS V13.01,2013-04-25 03:30:00,
2013-04-24 22:31:00,41.9,37.7,31.01,South,180,5.4,5.4,85,0.00,,,0.00,VWS V13.01,2013-04-25 03:31:00,
2013-04-24 22:33:00,41.7,37.5,31.01,South,180,5.8,5.8,85,0.00,,,0.00,VWS V13.01,2013-04-25 03:33:00,
2013-04-24 22:34:00,41.7,37.5,31.01,South,180,6.3,6.3,85,0.00,,,0.00,VWS V13.01,2013-04-25 03:34:00,
2013-04-24 22:35:00,41.7,37.5,31.01,South,179,5.8,5.8,85,0.00,,,0.00,VWS V13.01,2013-04-25 03:35:00,
2013-04-24 22:36:00,41.7,37.5,31.01,South,185,6.3,6.3,85,0.00,,,0.00,VWS V13.01,2013-04-25 03:36:00,
2013-04-24 22:39:00,42.1,37.9,31.01,South,180,5.8,5.8,85,0.00,,,0.00,VWS V13.01,2013-04-25 03:39:00,
2013-04-24 22:40:00,42.3,38.1,31.01,South,177,7.2,7.2,85,0.00,,,0.00,VWS V13.01,2013-04-25 03:40:00,
2013-04-24 22:41:00,42.3,38.1,31.01,SSW,193,5.8,5.8,85,0.00,,,0.00,VWS V13.01,2013-04-25 03:41:00,
2013-04-24 22:44:00,42.3,38.1,31.01,South,177,5.4,5.4,85,0.00,,,0.00,VWS V13.01,2013-04-25 03:44:00,
2013-04-24 22:45:00,42.3,38.1,31.01,South,184,7.6,7.6,85,0.00,,,0.00,VWS V13.01,2013-04-25 03:45:00,
2013-04-24 22:46:00,42.3,38.1,31.01,South,184,5.8,5.8,85,0.00,,,0.00,VWS V13.01,2013-04-25 03:46:00,
2013-04-24 22:49:00,42.4,38.3,31.01,South,185,6.3,6.3,85,0.00,,,0.00,VWS V13.01,2013-04-25 03:49:00,
2013-04-24 22:50:00,42.4,38.3,31.01,South,185,7.6,7.6,85,0.00,,,0.00,VWS V13.01,2013-04-25 03:50:00,
2013-04-24 22:51:00,42.4,38.3,31.01,South,173,7.2,7.2,85,0.00,,,0.00,VWS V13.01,2013-04-25 03:51:00,
2013-04-24 22:54:00,42.4,38.3,31.01,South,175,5.8,5.8,85,0.00,,,0.00,VWS V13.01,2013-04-25 03:54:00,
2013-04-24 22:55:00,42.3,38.1,31.01,South,186,6.3,6.3,85,0.00,,,0.00,VWS V13.01,2013-04-25 03:55:00,
2013-04-24 22:56:00,42.4,38.3,31.01,South,189,7.6,7.6,85,0.00,,,0.00,VWS V13.01,2013-04-25 03:56:00,
2013-04-24 22:59:00,42.4,38.3,31.01,SSW,192,5.8,5.8,85,0.00,,,0.00,VWS V13.01,2013-04-25 03:59:00,
2013-04-24 23:00:00,42.4,38.3,31.01,South,179,8.1,8.1,85,0.00,,,0.00,VWS V13.01,2013-04-25 04:00:00,
2013-04-24 23:01:00,42.4,38.3,31.01,South,187,7.6,7.6,85,0.00,,,0.00,VWS V13.01,2013-04-25 04:01:00,
2013-04-24 23:06:00,42.4,38.3,31.01,South,188,5.4,5.4,85,0.00,,,0.00,VWS V13.01,2013-04-25 04:06:00,
2013-04-24 23:11:00,42.4,38.3,31.01,South,189,6.3,6.3,85,0.00,,,0.00,VWS V13.01,2013-04-25 04:11:00,
2013-04-24 23:16:00,42.3,38.1,31.01,South,189,8.1,8.1,85,0.00,,,0.00,VWS V13.01,2013-04-25 04:16:00,
2013-04-24 23:21:00,42.3,38.1,31.01,South,171,8.1,8.1,85,0.00,,,0.00,VWS V13.01,2013-04-25 04:21:00,
2013-04-24 23:26:00,42.4,38.3,31.01,South,182,5.4,5.4,85,0.00,,,0.00,VWS V13.01,2013-04-25 04:26:00,
2013-04-24 23:31:00,42.3,38.1,31.01,South,189,5.4,5.4,85,0.00,,,0.00,VWS V13.01,2013-04-25 04:31:00,
2013-04-24 23:36:00,42.3,38.1,31.01,South,187,5.4,5.4,85,0.00,,,0.00,VWS V13.01,2013-04-25 04:36:00,
2013-04-24 23:41:00,42.1,37.9,31.01,SSW,193,7.6,7.6,85,0.00,,,0.00,VWS V13.01,2013-04-25 04:41:00,
2013-04-24 23:46:00,41.9,37.7,31.01,South,189,5.4,5.4,85,0.00,,,0.00,VWS V13.01,2013-04-25 04:46:00,
2013-04-24 23:51:00,41.7,37.5,31.01,SSW,195,5.8,5.8,85,0.00,,,0.00,VWS V13.01,2013-04-25 04:51:00,
2013-04-24 23:52:00,41.7,37.5,31.01,SSW,193,5.4,5.4,85,0.00,,,0.00,VWS V13.01,2013-04-25 04:52:00,
2013-04-24 23:56:00,41.5,37.4,31.01,South,189,5.8,5.8,85,0.00,,,0.00,VWS V13.01,2013-04-25 04:56:00,
2013-04-24 23:57:00,41.5,37.4,31.01,South,190,6.3,6.3,85,0.00,,,0.00,VWS V13.01,2013-04-25 04:57:00,